<?xml version="1.0" encoding="UTF-8" standalone="no" ?>
<gpx xmlns="http://www.topografix.com/GPX/1/1" xmlns:xsi="http://www.w3.org/2001/XMLSchema-instance" xsi:schemaLocation="http://www.topografix.com/GPX/1/1 http://www.topografix.com/GPX/1/1/gpx.xsd" version="1.1" creator="VisuGPX - https://www.visugpx.com">
  <metadata>
    <name>Tracé actuel: 23 JUIN 2020 12:48</name>
    <desc><![CDATA[reconnaissance d'un nouveau chemin]]></desc>
  </metadata>
  <trk>
    <name><![CDATA[Tracé actuel: 23 JUIN 2020 12:48]]></name>
    <trkseg>
      <trkpt lat="49.63334" lon="4.98173">
        <ele>180.87</ele>
        <time>2020-06-23T10:48:47Z</time>
      </trkpt>
      <trkpt lat="49.63383" lon="4.98146">
        <ele>228.93</ele>
        <time>2020-06-23T10:49:03Z</time>
      </trkpt>
      <trkpt lat="49.63386" lon="4.98146">
        <ele>233.26</ele>
        <time>2020-06-23T10:49:05Z</time>
      </trkpt>
      <trkpt lat="49.63406" lon="4.98148">
        <ele>248.64</ele>
        <time>2020-06-23T10:49:17Z</time>
      </trkpt>
      <trkpt lat="49.6342" lon="4.98155">
        <ele>257.77</ele>
        <time>2020-06-23T10:49:30Z</time>
      </trkpt>
      <trkpt lat="49.63433" lon="4.98158">
        <ele>260.17</ele>
        <time>2020-06-23T10:49:44Z</time>
      </trkpt>
      <trkpt lat="49.63445" lon="4.9816">
        <ele>260.17</ele>
        <time>2020-06-23T10:49:55Z</time>
      </trkpt>
      <trkpt lat="49.63466" lon="4.98187">
        <ele>244.31</ele>
        <time>2020-06-23T10:50:05Z</time>
      </trkpt>
      <trkpt lat="49.63467" lon="4.98199">
        <ele>242.39</ele>
        <time>2020-06-23T10:50:13Z</time>
      </trkpt>
      <trkpt lat="49.63461" lon="4.98209">
        <ele>241.43</ele>
        <time>2020-06-23T10:50:25Z</time>
      </trkpt>
      <trkpt lat="49.63457" lon="4.98221">
        <ele>240.95</ele>
        <time>2020-06-23T10:50:37Z</time>
      </trkpt>
      <trkpt lat="49.63456" lon="4.98231">
        <ele>239.99</ele>
        <time>2020-06-23T10:50:47Z</time>
      </trkpt>
      <trkpt lat="49.63453" lon="4.98245">
        <ele>239.99</ele>
        <time>2020-06-23T10:50:59Z</time>
      </trkpt>
      <trkpt lat="49.63449" lon="4.98259">
        <ele>241.91</ele>
        <time>2020-06-23T10:51:11Z</time>
      </trkpt>
      <trkpt lat="49.63445" lon="4.98269">
        <ele>243.35</ele>
        <time>2020-06-23T10:51:22Z</time>
      </trkpt>
      <trkpt lat="49.63437" lon="4.9828">
        <ele>243.35</ele>
        <time>2020-06-23T10:51:34Z</time>
      </trkpt>
      <trkpt lat="49.63432" lon="4.9829">
        <ele>244.31</ele>
        <time>2020-06-23T10:51:45Z</time>
      </trkpt>
      <trkpt lat="49.63431" lon="4.98294">
        <ele>244.31</ele>
        <time>2020-06-23T10:51:48Z</time>
      </trkpt>
      <trkpt lat="49.63426" lon="4.98307">
        <ele>244.31</ele>
        <time>2020-06-23T10:52:01Z</time>
      </trkpt>
      <trkpt lat="49.63421" lon="4.98315">
        <ele>244.79</ele>
        <time>2020-06-23T10:52:12Z</time>
      </trkpt>
      <trkpt lat="49.63414" lon="4.98325">
        <ele>245.75</ele>
        <time>2020-06-23T10:52:23Z</time>
      </trkpt>
      <trkpt lat="49.63404" lon="4.98336">
        <ele>247.2</ele>
        <time>2020-06-23T10:52:38Z</time>
      </trkpt>
      <trkpt lat="49.63396" lon="4.98346">
        <ele>248.16</ele>
        <time>2020-06-23T10:52:51Z</time>
      </trkpt>
      <trkpt lat="49.63388" lon="4.98349">
        <ele>248.64</ele>
        <time>2020-06-23T10:52:59Z</time>
      </trkpt>
      <trkpt lat="49.63356" lon="4.98388">
        <ele>258.73</ele>
        <time>2020-06-23T10:53:11Z</time>
      </trkpt>
      <trkpt lat="49.63335" lon="4.98414">
        <ele>258.25</ele>
        <time>2020-06-23T10:53:22Z</time>
      </trkpt>
      <trkpt lat="49.63306" lon="4.98422">
        <ele>256.33</ele>
        <time>2020-06-23T10:53:32Z</time>
      </trkpt>
      <trkpt lat="49.63294" lon="4.98434">
        <ele>252.96</ele>
        <time>2020-06-23T10:53:42Z</time>
      </trkpt>
      <trkpt lat="49.63289" lon="4.98444">
        <ele>249.12</ele>
        <time>2020-06-23T10:53:53Z</time>
      </trkpt>
      <trkpt lat="49.63291" lon="4.98406">
        <ele>246.72</ele>
        <time>2020-06-23T10:54:03Z</time>
      </trkpt>
      <trkpt lat="49.63296" lon="4.98336">
        <ele>246.72</ele>
        <time>2020-06-23T10:54:13Z</time>
      </trkpt>
      <trkpt lat="49.6329" lon="4.98314">
        <ele>247.2</ele>
        <time>2020-06-23T10:54:24Z</time>
      </trkpt>
      <trkpt lat="49.63289" lon="4.98302">
        <ele>247.68</ele>
        <time>2020-06-23T10:54:39Z</time>
      </trkpt>
      <trkpt lat="49.63296" lon="4.98292">
        <ele>239.51</ele>
        <time>2020-06-23T10:54:46Z</time>
      </trkpt>
      <trkpt lat="49.63281" lon="4.98289">
        <ele>232.78</ele>
        <time>2020-06-23T10:54:58Z</time>
      </trkpt>
      <trkpt lat="49.63277" lon="4.98288">
        <ele>229.41</ele>
        <time>2020-06-23T10:55:13Z</time>
      </trkpt>
      <trkpt lat="49.63277" lon="4.9829">
        <ele>228.93</ele>
        <time>2020-06-23T10:55:14Z</time>
      </trkpt>
      <trkpt lat="49.63274" lon="4.98291">
        <ele>227.01</ele>
        <time>2020-06-23T10:55:19Z</time>
      </trkpt>
      <trkpt lat="49.6327" lon="4.98293">
        <ele>225.57</ele>
        <time>2020-06-23T10:55:24Z</time>
      </trkpt>
      <trkpt lat="49.63259" lon="4.98297">
        <ele>220.28</ele>
        <time>2020-06-23T10:55:38Z</time>
      </trkpt>
      <trkpt lat="49.63248" lon="4.98296">
        <ele>217.88</ele>
        <time>2020-06-23T10:55:49Z</time>
      </trkpt>
      <trkpt lat="49.63237" lon="4.98295">
        <ele>215.47</ele>
        <time>2020-06-23T10:56:01Z</time>
      </trkpt>
      <trkpt lat="49.63236" lon="4.98295">
        <ele>214.99</ele>
        <time>2020-06-23T10:56:03Z</time>
      </trkpt>
      <trkpt lat="49.63223" lon="4.98293">
        <ele>212.59</ele>
        <time>2020-06-23T10:56:16Z</time>
      </trkpt>
      <trkpt lat="49.63214" lon="4.98298">
        <ele>209.7</ele>
        <time>2020-06-23T10:56:27Z</time>
      </trkpt>
      <trkpt lat="49.63202" lon="4.98296">
        <ele>207.78</ele>
        <time>2020-06-23T10:56:40Z</time>
      </trkpt>
      <trkpt lat="49.63198" lon="4.98297">
        <ele>206.82</ele>
        <time>2020-06-23T10:56:45Z</time>
      </trkpt>
      <trkpt lat="49.6319" lon="4.98298">
        <ele>205.86</ele>
        <time>2020-06-23T10:56:53Z</time>
      </trkpt>
      <trkpt lat="49.63186" lon="4.98302">
        <ele>204.9</ele>
        <time>2020-06-23T10:56:59Z</time>
      </trkpt>
      <trkpt lat="49.63173" lon="4.98299">
        <ele>203.94</ele>
        <time>2020-06-23T10:57:11Z</time>
      </trkpt>
      <trkpt lat="49.63162" lon="4.98297">
        <ele>202.49</ele>
        <time>2020-06-23T10:57:22Z</time>
      </trkpt>
      <trkpt lat="49.63151" lon="4.98295">
        <ele>201.53</ele>
        <time>2020-06-23T10:57:34Z</time>
      </trkpt>
      <trkpt lat="49.6315" lon="4.98295">
        <ele>201.53</ele>
        <time>2020-06-23T10:57:35Z</time>
      </trkpt>
      <trkpt lat="49.63139" lon="4.98292">
        <ele>200.57</ele>
        <time>2020-06-23T10:57:47Z</time>
      </trkpt>
      <trkpt lat="49.63132" lon="4.9829">
        <ele>199.61</ele>
        <time>2020-06-23T10:57:54Z</time>
      </trkpt>
      <trkpt lat="49.63128" lon="4.9829">
        <ele>199.61</ele>
        <time>2020-06-23T10:57:58Z</time>
      </trkpt>
      <trkpt lat="49.63124" lon="4.98291">
        <ele>199.61</ele>
        <time>2020-06-23T10:58:03Z</time>
      </trkpt>
      <trkpt lat="49.63113" lon="4.98297">
        <ele>197.69</ele>
        <time>2020-06-23T10:58:16Z</time>
      </trkpt>
      <trkpt lat="49.63103" lon="4.98301">
        <ele>195.77</ele>
        <time>2020-06-23T10:58:28Z</time>
      </trkpt>
      <trkpt lat="49.63089" lon="4.98299">
        <ele>194.8</ele>
        <time>2020-06-23T10:58:43Z</time>
      </trkpt>
      <trkpt lat="49.63079" lon="4.98298">
        <ele>194.32</ele>
        <time>2020-06-23T10:58:54Z</time>
      </trkpt>
      <trkpt lat="49.63066" lon="4.98299">
        <ele>193.84</ele>
        <time>2020-06-23T10:59:06Z</time>
      </trkpt>
      <trkpt lat="49.63058" lon="4.983">
        <ele>194.32</ele>
        <time>2020-06-23T10:59:16Z</time>
      </trkpt>
      <trkpt lat="49.63046" lon="4.98298">
        <ele>196.73</ele>
        <time>2020-06-23T10:59:28Z</time>
      </trkpt>
      <trkpt lat="49.63045" lon="4.98297">
        <ele>196.73</ele>
        <time>2020-06-23T10:59:29Z</time>
      </trkpt>
      <trkpt lat="49.63042" lon="4.98296">
        <ele>197.21</ele>
        <time>2020-06-23T10:59:32Z</time>
      </trkpt>
      <trkpt lat="49.63039" lon="4.98295">
        <ele>198.17</ele>
        <time>2020-06-23T10:59:36Z</time>
      </trkpt>
      <trkpt lat="49.63027" lon="4.98291">
        <ele>198.17</ele>
        <time>2020-06-23T10:59:48Z</time>
      </trkpt>
      <trkpt lat="49.63018" lon="4.98287">
        <ele>197.69</ele>
        <time>2020-06-23T10:59:59Z</time>
      </trkpt>
      <trkpt lat="49.63006" lon="4.98292">
        <ele>198.17</ele>
        <time>2020-06-23T11:00:13Z</time>
      </trkpt>
      <trkpt lat="49.62995" lon="4.98292">
        <ele>198.65</ele>
        <time>2020-06-23T11:00:26Z</time>
      </trkpt>
      <trkpt lat="49.62982" lon="4.98293">
        <ele>211.15</ele>
        <time>2020-06-23T11:00:39Z</time>
      </trkpt>
      <trkpt lat="49.62972" lon="4.98289">
        <ele>218.36</ele>
        <time>2020-06-23T11:00:49Z</time>
      </trkpt>
      <trkpt lat="49.62961" lon="4.98287">
        <ele>223.64</ele>
        <time>2020-06-23T11:00:59Z</time>
      </trkpt>
      <trkpt lat="49.62949" lon="4.98286">
        <ele>230.37</ele>
        <time>2020-06-23T11:01:11Z</time>
      </trkpt>
      <trkpt lat="49.62939" lon="4.98285">
        <ele>235.18</ele>
        <time>2020-06-23T11:01:21Z</time>
      </trkpt>
      <trkpt lat="49.62924" lon="4.98285">
        <ele>242.87</ele>
        <time>2020-06-23T11:01:34Z</time>
      </trkpt>
      <trkpt lat="49.62909" lon="4.98285">
        <ele>252.96</ele>
        <time>2020-06-23T11:01:47Z</time>
      </trkpt>
      <trkpt lat="49.62902" lon="4.98286">
        <ele>257.77</ele>
        <time>2020-06-23T11:01:53Z</time>
      </trkpt>
      <trkpt lat="49.62886" lon="4.98286">
        <ele>266.9</ele>
        <time>2020-06-23T11:02:05Z</time>
      </trkpt>
      <trkpt lat="49.62885" lon="4.98285">
        <ele>268.35</ele>
        <time>2020-06-23T11:02:07Z</time>
      </trkpt>
      <trkpt lat="49.62871" lon="4.98283">
        <ele>278.44</ele>
        <time>2020-06-23T11:02:20Z</time>
      </trkpt>
      <trkpt lat="49.62854" lon="4.9828">
        <ele>284.21</ele>
        <time>2020-06-23T11:02:33Z</time>
      </trkpt>
      <trkpt lat="49.62846" lon="4.98279">
        <ele>286.61</ele>
        <time>2020-06-23T11:02:41Z</time>
      </trkpt>
      <trkpt lat="49.62849" lon="4.98301">
        <ele>276.52</ele>
        <time>2020-06-23T11:02:53Z</time>
      </trkpt>
      <trkpt lat="49.62851" lon="4.98306">
        <ele>273.63</ele>
        <time>2020-06-23T11:02:55Z</time>
      </trkpt>
      <trkpt lat="49.62852" lon="4.98332">
        <ele>260.17</ele>
        <time>2020-06-23T11:03:08Z</time>
      </trkpt>
      <trkpt lat="49.62842" lon="4.98346">
        <ele>253.93</ele>
        <time>2020-06-23T11:03:24Z</time>
      </trkpt>
      <trkpt lat="49.62837" lon="4.9835">
        <ele>251.52</ele>
        <time>2020-06-23T11:03:31Z</time>
      </trkpt>
      <trkpt lat="49.62834" lon="4.9836">
        <ele>250.08</ele>
        <time>2020-06-23T11:03:47Z</time>
      </trkpt>
      <trkpt lat="49.62821" lon="4.98369">
        <ele>251.52</ele>
        <time>2020-06-23T11:04:01Z</time>
      </trkpt>
      <trkpt lat="49.62811" lon="4.98379">
        <ele>252.48</ele>
        <time>2020-06-23T11:04:13Z</time>
      </trkpt>
      <trkpt lat="49.62799" lon="4.98389">
        <ele>252.48</ele>
        <time>2020-06-23T11:04:26Z</time>
      </trkpt>
      <trkpt lat="49.62792" lon="4.98396">
        <ele>252.96</ele>
        <time>2020-06-23T11:04:38Z</time>
      </trkpt>
      <trkpt lat="49.62778" lon="4.98405">
        <ele>253.93</ele>
        <time>2020-06-23T11:04:51Z</time>
      </trkpt>
      <trkpt lat="49.6277" lon="4.98412">
        <ele>255.37</ele>
        <time>2020-06-23T11:05:01Z</time>
      </trkpt>
      <trkpt lat="49.62759" lon="4.98419">
        <ele>257.29</ele>
        <time>2020-06-23T11:05:15Z</time>
      </trkpt>
      <trkpt lat="49.62748" lon="4.98429">
        <ele>258.73</ele>
        <time>2020-06-23T11:05:28Z</time>
      </trkpt>
      <trkpt lat="49.62736" lon="4.98437">
        <ele>261.14</ele>
        <time>2020-06-23T11:05:42Z</time>
      </trkpt>
      <trkpt lat="49.62723" lon="4.98451">
        <ele>261.14</ele>
        <time>2020-06-23T11:05:58Z</time>
      </trkpt>
      <trkpt lat="49.62708" lon="4.98462">
        <ele>260.17</ele>
        <time>2020-06-23T11:06:14Z</time>
      </trkpt>
      <trkpt lat="49.62707" lon="4.98464">
        <ele>260.17</ele>
        <time>2020-06-23T11:06:15Z</time>
      </trkpt>
      <trkpt lat="49.62693" lon="4.98474">
        <ele>260.65</ele>
        <time>2020-06-23T11:06:30Z</time>
      </trkpt>
      <trkpt lat="49.62681" lon="4.9848">
        <ele>262.58</ele>
        <time>2020-06-23T11:06:44Z</time>
      </trkpt>
      <trkpt lat="49.62669" lon="4.9849">
        <ele>264.5</ele>
        <time>2020-06-23T11:06:59Z</time>
      </trkpt>
      <trkpt lat="49.6266" lon="4.98503">
        <ele>264.98</ele>
        <time>2020-06-23T11:07:14Z</time>
      </trkpt>
      <trkpt lat="49.62648" lon="4.98512">
        <ele>263.06</ele>
        <time>2020-06-23T11:07:28Z</time>
      </trkpt>
      <trkpt lat="49.62633" lon="4.98524">
        <ele>259.69</ele>
        <time>2020-06-23T11:07:46Z</time>
      </trkpt>
      <trkpt lat="49.62621" lon="4.98534">
        <ele>258.25</ele>
        <time>2020-06-23T11:08:01Z</time>
      </trkpt>
      <trkpt lat="49.62609" lon="4.98544">
        <ele>257.77</ele>
        <time>2020-06-23T11:08:16Z</time>
      </trkpt>
      <trkpt lat="49.62598" lon="4.98552">
        <ele>257.29</ele>
        <time>2020-06-23T11:08:32Z</time>
      </trkpt>
      <trkpt lat="49.62588" lon="4.9856">
        <ele>257.29</ele>
        <time>2020-06-23T11:08:46Z</time>
      </trkpt>
      <trkpt lat="49.62577" lon="4.98569">
        <ele>258.73</ele>
        <time>2020-06-23T11:09:00Z</time>
      </trkpt>
      <trkpt lat="49.62565" lon="4.9858">
        <ele>260.17</ele>
        <time>2020-06-23T11:09:13Z</time>
      </trkpt>
      <trkpt lat="49.62559" lon="4.98583">
        <ele>260.17</ele>
        <time>2020-06-23T11:09:19Z</time>
      </trkpt>
      <trkpt lat="49.62555" lon="4.98582">
        <ele>259.69</ele>
        <time>2020-06-23T11:09:28Z</time>
      </trkpt>
      <trkpt lat="49.62555" lon="4.98578">
        <ele>259.21</ele>
        <time>2020-06-23T11:09:33Z</time>
      </trkpt>
      <trkpt lat="49.62556" lon="4.98565">
        <ele>259.69</ele>
        <time>2020-06-23T11:09:46Z</time>
      </trkpt>
      <trkpt lat="49.62553" lon="4.98562">
        <ele>259.21</ele>
        <time>2020-06-23T11:09:56Z</time>
      </trkpt>
      <trkpt lat="49.62545" lon="4.98561">
        <ele>259.21</ele>
        <time>2020-06-23T11:10:04Z</time>
      </trkpt>
      <trkpt lat="49.62532" lon="4.98567">
        <ele>258.73</ele>
        <time>2020-06-23T11:10:17Z</time>
      </trkpt>
      <trkpt lat="49.6253" lon="4.98566">
        <ele>258.73</ele>
        <time>2020-06-23T11:10:19Z</time>
      </trkpt>
      <trkpt lat="49.62513" lon="4.98561">
        <ele>257.77</ele>
        <time>2020-06-23T11:10:34Z</time>
      </trkpt>
      <trkpt lat="49.62511" lon="4.9856">
        <ele>257.77</ele>
        <time>2020-06-23T11:10:36Z</time>
      </trkpt>
      <trkpt lat="49.625" lon="4.98552">
        <ele>256.81</ele>
        <time>2020-06-23T11:10:49Z</time>
      </trkpt>
      <trkpt lat="49.62488" lon="4.98544">
        <ele>256.33</ele>
        <time>2020-06-23T11:11:02Z</time>
      </trkpt>
      <trkpt lat="49.62475" lon="4.98534">
        <ele>255.85</ele>
        <time>2020-06-23T11:11:16Z</time>
      </trkpt>
      <trkpt lat="49.62464" lon="4.98525">
        <ele>255.85</ele>
        <time>2020-06-23T11:11:28Z</time>
      </trkpt>
      <trkpt lat="49.62454" lon="4.9852">
        <ele>255.37</ele>
        <time>2020-06-23T11:11:40Z</time>
      </trkpt>
      <trkpt lat="49.62443" lon="4.98512">
        <ele>255.37</ele>
        <time>2020-06-23T11:11:52Z</time>
      </trkpt>
      <trkpt lat="49.62433" lon="4.98503">
        <ele>254.89</ele>
        <time>2020-06-23T11:12:03Z</time>
      </trkpt>
      <trkpt lat="49.62422" lon="4.98494">
        <ele>255.37</ele>
        <time>2020-06-23T11:12:16Z</time>
      </trkpt>
      <trkpt lat="49.62412" lon="4.98487">
        <ele>254.89</ele>
        <time>2020-06-23T11:12:28Z</time>
      </trkpt>
      <trkpt lat="49.624" lon="4.98478">
        <ele>255.37</ele>
        <time>2020-06-23T11:12:40Z</time>
      </trkpt>
      <trkpt lat="49.62388" lon="4.9847">
        <ele>256.33</ele>
        <time>2020-06-23T11:12:53Z</time>
      </trkpt>
      <trkpt lat="49.62386" lon="4.98469">
        <ele>256.33</ele>
        <time>2020-06-23T11:12:55Z</time>
      </trkpt>
      <trkpt lat="49.62375" lon="4.98464">
        <ele>258.25</ele>
        <time>2020-06-23T11:13:06Z</time>
      </trkpt>
      <trkpt lat="49.6237" lon="4.98462">
        <ele>259.69</ele>
        <time>2020-06-23T11:13:12Z</time>
      </trkpt>
      <trkpt lat="49.62363" lon="4.98458">
        <ele>260.17</ele>
        <time>2020-06-23T11:13:19Z</time>
      </trkpt>
      <trkpt lat="49.62351" lon="4.98451">
        <ele>262.58</ele>
        <time>2020-06-23T11:13:32Z</time>
      </trkpt>
      <trkpt lat="49.6234" lon="4.98442">
        <ele>263.54</ele>
        <time>2020-06-23T11:13:46Z</time>
      </trkpt>
      <trkpt lat="49.62328" lon="4.9843">
        <ele>263.06</ele>
        <time>2020-06-23T11:13:59Z</time>
      </trkpt>
      <trkpt lat="49.62321" lon="4.98424">
        <ele>263.06</ele>
        <time>2020-06-23T11:14:08Z</time>
      </trkpt>
      <trkpt lat="49.62319" lon="4.98421">
        <ele>263.06</ele>
        <time>2020-06-23T11:14:10Z</time>
      </trkpt>
      <trkpt lat="49.62307" lon="4.98405">
        <ele>262.58</ele>
        <time>2020-06-23T11:14:24Z</time>
      </trkpt>
      <trkpt lat="49.623" lon="4.98392">
        <ele>263.54</ele>
        <time>2020-06-23T11:14:36Z</time>
      </trkpt>
      <trkpt lat="49.6229" lon="4.98378">
        <ele>263.54</ele>
        <time>2020-06-23T11:14:49Z</time>
      </trkpt>
      <trkpt lat="49.62282" lon="4.98363">
        <ele>264.02</ele>
        <time>2020-06-23T11:15:02Z</time>
      </trkpt>
      <trkpt lat="49.62278" lon="4.98349">
        <ele>264.5</ele>
        <time>2020-06-23T11:15:16Z</time>
      </trkpt>
      <trkpt lat="49.62273" lon="4.98332">
        <ele>265.46</ele>
        <time>2020-06-23T11:15:32Z</time>
      </trkpt>
      <trkpt lat="49.62259" lon="4.98323">
        <ele>267.38</ele>
        <time>2020-06-23T11:15:48Z</time>
      </trkpt>
      <trkpt lat="49.6225" lon="4.98314">
        <ele>269.79</ele>
        <time>2020-06-23T11:15:58Z</time>
      </trkpt>
      <trkpt lat="49.62227" lon="4.983">
        <ele>273.15</ele>
        <time>2020-06-23T11:16:15Z</time>
      </trkpt>
      <trkpt lat="49.62215" lon="4.98293">
        <ele>279.4</ele>
        <time>2020-06-23T11:16:29Z</time>
      </trkpt>
      <trkpt lat="49.62202" lon="4.98286">
        <ele>280.84</ele>
        <time>2020-06-23T11:16:39Z</time>
      </trkpt>
      <trkpt lat="49.62182" lon="4.98275">
        <ele>284.21</ele>
        <time>2020-06-23T11:16:54Z</time>
      </trkpt>
      <trkpt lat="49.62167" lon="4.98268">
        <ele>287.57</ele>
        <time>2020-06-23T11:17:07Z</time>
      </trkpt>
      <trkpt lat="49.62155" lon="4.98263">
        <ele>290.94</ele>
        <time>2020-06-23T11:17:21Z</time>
      </trkpt>
      <trkpt lat="49.62146" lon="4.98271">
        <ele>286.61</ele>
        <time>2020-06-23T11:17:36Z</time>
      </trkpt>
      <trkpt lat="49.62138" lon="4.98271">
        <ele>284.21</ele>
        <time>2020-06-23T11:17:49Z</time>
      </trkpt>
      <trkpt lat="49.62128" lon="4.98265">
        <ele>283.73</ele>
        <time>2020-06-23T11:18:05Z</time>
      </trkpt>
      <trkpt lat="49.62118" lon="4.98255">
        <ele>282.28</ele>
        <time>2020-06-23T11:18:18Z</time>
      </trkpt>
      <trkpt lat="49.62101" lon="4.98241">
        <ele>278.44</ele>
        <time>2020-06-23T11:18:31Z</time>
      </trkpt>
      <trkpt lat="49.62089" lon="4.98229">
        <ele>277.48</ele>
        <time>2020-06-23T11:18:44Z</time>
      </trkpt>
      <trkpt lat="49.62078" lon="4.98223">
        <ele>279.88</ele>
        <time>2020-06-23T11:18:56Z</time>
      </trkpt>
      <trkpt lat="49.6207" lon="4.98219">
        <ele>280.84</ele>
        <time>2020-06-23T11:19:03Z</time>
      </trkpt>
      <trkpt lat="49.62058" lon="4.98216">
        <ele>280.36</ele>
        <time>2020-06-23T11:19:18Z</time>
      </trkpt>
      <trkpt lat="49.62049" lon="4.9821">
        <ele>281.8</ele>
        <time>2020-06-23T11:19:27Z</time>
      </trkpt>
      <trkpt lat="49.62038" lon="4.98199">
        <ele>286.13</ele>
        <time>2020-06-23T11:19:41Z</time>
      </trkpt>
      <trkpt lat="49.62033" lon="4.98195">
        <ele>288.53</ele>
        <time>2020-06-23T11:19:52Z</time>
      </trkpt>
      <trkpt lat="49.62017" lon="4.98183">
        <ele>294.3</ele>
        <time>2020-06-23T11:20:08Z</time>
      </trkpt>
      <trkpt lat="49.62002" lon="4.98178">
        <ele>298.15</ele>
        <time>2020-06-23T11:20:21Z</time>
      </trkpt>
      <trkpt lat="49.61981" lon="4.98168">
        <ele>300.55</ele>
        <time>2020-06-23T11:20:35Z</time>
      </trkpt>
      <trkpt lat="49.61974" lon="4.98164">
        <ele>302.95</ele>
        <time>2020-06-23T11:20:42Z</time>
      </trkpt>
      <trkpt lat="49.61957" lon="4.98158">
        <ele>306.32</ele>
        <time>2020-06-23T11:21:00Z</time>
      </trkpt>
      <trkpt lat="49.61954" lon="4.98157">
        <ele>305.84</ele>
        <time>2020-06-23T11:21:14Z</time>
      </trkpt>
      <trkpt lat="49.61948" lon="4.98155">
        <ele>306.32</ele>
        <time>2020-06-23T11:21:35Z</time>
      </trkpt>
      <trkpt lat="49.61946" lon="4.98154">
        <ele>306.32</ele>
        <time>2020-06-23T11:21:38Z</time>
      </trkpt>
      <trkpt lat="49.61926" lon="4.98143">
        <ele>308.72</ele>
        <time>2020-06-23T11:21:53Z</time>
      </trkpt>
      <trkpt lat="49.61908" lon="4.98136">
        <ele>313.05</ele>
        <time>2020-06-23T11:22:10Z</time>
      </trkpt>
      <trkpt lat="49.61899" lon="4.98134">
        <ele>314.01</ele>
        <time>2020-06-23T11:22:14Z</time>
      </trkpt>
      <trkpt lat="49.6188" lon="4.98129">
        <ele>314.01</ele>
        <time>2020-06-23T11:22:23Z</time>
      </trkpt>
      <trkpt lat="49.61856" lon="4.98131">
        <ele>318.81</ele>
        <time>2020-06-23T11:22:38Z</time>
      </trkpt>
      <trkpt lat="49.61839" lon="4.98131">
        <ele>323.62</ele>
        <time>2020-06-23T11:22:50Z</time>
      </trkpt>
      <trkpt lat="49.61818" lon="4.98128">
        <ele>326.99</ele>
        <time>2020-06-23T11:23:01Z</time>
      </trkpt>
      <trkpt lat="49.61809" lon="4.98121">
        <ele>330.83</ele>
        <time>2020-06-23T11:23:15Z</time>
      </trkpt>
      <trkpt lat="49.61807" lon="4.9812">
        <ele>333.71</ele>
        <time>2020-06-23T11:23:28Z</time>
      </trkpt>
      <trkpt lat="49.6181" lon="4.98116">
        <ele>331.79</ele>
        <time>2020-06-23T11:23:38Z</time>
      </trkpt>
      <trkpt lat="49.61817" lon="4.98099">
        <ele>329.87</ele>
        <time>2020-06-23T11:23:52Z</time>
      </trkpt>
      <trkpt lat="49.61823" lon="4.98084">
        <ele>329.39</ele>
        <time>2020-06-23T11:24:05Z</time>
      </trkpt>
      <trkpt lat="49.61829" lon="4.98062">
        <ele>329.87</ele>
        <time>2020-06-23T11:24:20Z</time>
      </trkpt>
      <trkpt lat="49.61838" lon="4.98038">
        <ele>332.27</ele>
        <time>2020-06-23T11:24:38Z</time>
      </trkpt>
      <trkpt lat="49.61845" lon="4.98016">
        <ele>335.16</ele>
        <time>2020-06-23T11:24:53Z</time>
      </trkpt>
      <trkpt lat="49.61855" lon="4.97999">
        <ele>332.75</ele>
        <time>2020-06-23T11:25:08Z</time>
      </trkpt>
      <trkpt lat="49.61864" lon="4.97981">
        <ele>327.95</ele>
        <time>2020-06-23T11:25:22Z</time>
      </trkpt>
      <trkpt lat="49.61866" lon="4.97978">
        <ele>327.47</ele>
        <time>2020-06-23T11:25:25Z</time>
      </trkpt>
      <trkpt lat="49.61874" lon="4.97966">
        <ele>326.02</ele>
        <time>2020-06-23T11:25:34Z</time>
      </trkpt>
      <trkpt lat="49.61887" lon="4.9797">
        <ele>317.85</ele>
        <time>2020-06-23T11:25:43Z</time>
      </trkpt>
      <trkpt lat="49.61903" lon="4.97974">
        <ele>309.68</ele>
        <time>2020-06-23T11:25:51Z</time>
      </trkpt>
      <trkpt lat="49.6192" lon="4.97964">
        <ele>300.55</ele>
        <time>2020-06-23T11:26:07Z</time>
      </trkpt>
      <trkpt lat="49.61925" lon="4.97956">
        <ele>298.15</ele>
        <time>2020-06-23T11:26:15Z</time>
      </trkpt>
      <trkpt lat="49.61937" lon="4.97941">
        <ele>292.38</ele>
        <time>2020-06-23T11:26:29Z</time>
      </trkpt>
      <trkpt lat="49.61952" lon="4.97926">
        <ele>287.57</ele>
        <time>2020-06-23T11:26:45Z</time>
      </trkpt>
      <trkpt lat="49.61966" lon="4.97907">
        <ele>284.21</ele>
        <time>2020-06-23T11:27:01Z</time>
      </trkpt>
      <trkpt lat="49.61974" lon="4.97892">
        <ele>280.84</ele>
        <time>2020-06-23T11:27:15Z</time>
      </trkpt>
      <trkpt lat="49.61975" lon="4.97889">
        <ele>280.84</ele>
        <time>2020-06-23T11:27:17Z</time>
      </trkpt>
      <trkpt lat="49.61983" lon="4.97875">
        <ele>281.32</ele>
        <time>2020-06-23T11:27:29Z</time>
      </trkpt>
      <trkpt lat="49.6199" lon="4.97856">
        <ele>281.32</ele>
        <time>2020-06-23T11:27:42Z</time>
      </trkpt>
      <trkpt lat="49.61991" lon="4.97853">
        <ele>281.32</ele>
        <time>2020-06-23T11:27:45Z</time>
      </trkpt>
      <trkpt lat="49.61992" lon="4.97849">
        <ele>281.32</ele>
        <time>2020-06-23T11:27:47Z</time>
      </trkpt>
      <trkpt lat="49.61998" lon="4.97826">
        <ele>279.88</ele>
        <time>2020-06-23T11:28:02Z</time>
      </trkpt>
      <trkpt lat="49.62005" lon="4.97803">
        <ele>277.48</ele>
        <time>2020-06-23T11:28:15Z</time>
      </trkpt>
      <trkpt lat="49.6201" lon="4.97775">
        <ele>274.59</ele>
        <time>2020-06-23T11:28:32Z</time>
      </trkpt>
      <trkpt lat="49.62014" lon="4.97749">
        <ele>271.71</ele>
        <time>2020-06-23T11:28:48Z</time>
      </trkpt>
      <trkpt lat="49.62019" lon="4.97723">
        <ele>268.83</ele>
        <time>2020-06-23T11:29:04Z</time>
      </trkpt>
      <trkpt lat="49.62022" lon="4.97704">
        <ele>266.42</ele>
        <time>2020-06-23T11:29:17Z</time>
      </trkpt>
      <trkpt lat="49.62026" lon="4.97681">
        <ele>264.98</ele>
        <time>2020-06-23T11:29:32Z</time>
      </trkpt>
      <trkpt lat="49.62031" lon="4.97654">
        <ele>263.06</ele>
        <time>2020-06-23T11:29:46Z</time>
      </trkpt>
      <trkpt lat="49.62033" lon="4.97629">
        <ele>261.14</ele>
        <time>2020-06-23T11:30:02Z</time>
      </trkpt>
      <trkpt lat="49.62033" lon="4.97603">
        <ele>263.06</ele>
        <time>2020-06-23T11:30:19Z</time>
      </trkpt>
      <trkpt lat="49.62033" lon="4.97577">
        <ele>263.54</ele>
        <time>2020-06-23T11:30:36Z</time>
      </trkpt>
      <trkpt lat="49.62034" lon="4.97548">
        <ele>262.58</ele>
        <time>2020-06-23T11:30:54Z</time>
      </trkpt>
      <trkpt lat="49.62036" lon="4.97522">
        <ele>262.58</ele>
        <time>2020-06-23T11:31:10Z</time>
      </trkpt>
      <trkpt lat="49.62033" lon="4.97502">
        <ele>263.06</ele>
        <time>2020-06-23T11:31:25Z</time>
      </trkpt>
      <trkpt lat="49.62019" lon="4.975">
        <ele>263.54</ele>
        <time>2020-06-23T11:31:39Z</time>
      </trkpt>
      <trkpt lat="49.62003" lon="4.97499">
        <ele>264.98</ele>
        <time>2020-06-23T11:31:57Z</time>
      </trkpt>
      <trkpt lat="49.61986" lon="4.97499">
        <ele>264.98</ele>
        <time>2020-06-23T11:32:14Z</time>
      </trkpt>
      <trkpt lat="49.61974" lon="4.97499">
        <ele>263.54</ele>
        <time>2020-06-23T11:32:27Z</time>
      </trkpt>
      <trkpt lat="49.61959" lon="4.975">
        <ele>264.5</ele>
        <time>2020-06-23T11:32:42Z</time>
      </trkpt>
      <trkpt lat="49.61941" lon="4.97502">
        <ele>264.98</ele>
        <time>2020-06-23T11:33:00Z</time>
      </trkpt>
      <trkpt lat="49.61925" lon="4.97501">
        <ele>264.98</ele>
        <time>2020-06-23T11:33:16Z</time>
      </trkpt>
      <trkpt lat="49.6191" lon="4.97502">
        <ele>264.98</ele>
        <time>2020-06-23T11:33:31Z</time>
      </trkpt>
      <trkpt lat="49.61902" lon="4.975">
        <ele>264.5</ele>
        <time>2020-06-23T11:33:39Z</time>
      </trkpt>
      <trkpt lat="49.61888" lon="4.97491">
        <ele>264.02</ele>
        <time>2020-06-23T11:33:56Z</time>
      </trkpt>
      <trkpt lat="49.61877" lon="4.97474">
        <ele>264.5</ele>
        <time>2020-06-23T11:34:10Z</time>
      </trkpt>
      <trkpt lat="49.61867" lon="4.97462">
        <ele>264.02</ele>
        <time>2020-06-23T11:34:24Z</time>
      </trkpt>
      <trkpt lat="49.61856" lon="4.97447">
        <ele>264.02</ele>
        <time>2020-06-23T11:34:39Z</time>
      </trkpt>
      <trkpt lat="49.61854" lon="4.97446">
        <ele>264.02</ele>
        <time>2020-06-23T11:34:41Z</time>
      </trkpt>
      <trkpt lat="49.61839" lon="4.97428">
        <ele>263.54</ele>
        <time>2020-06-23T11:34:57Z</time>
      </trkpt>
      <trkpt lat="49.61825" lon="4.97413">
        <ele>263.06</ele>
        <time>2020-06-23T11:35:13Z</time>
      </trkpt>
      <trkpt lat="49.61818" lon="4.97395">
        <ele>261.14</ele>
        <time>2020-06-23T11:35:28Z</time>
      </trkpt>
      <trkpt lat="49.61817" lon="4.97385">
        <ele>260.65</ele>
        <time>2020-06-23T11:35:34Z</time>
      </trkpt>
      <trkpt lat="49.61812" lon="4.97368">
        <ele>260.17</ele>
        <time>2020-06-23T11:35:49Z</time>
      </trkpt>
      <trkpt lat="49.61806" lon="4.97343">
        <ele>259.21</ele>
        <time>2020-06-23T11:36:05Z</time>
      </trkpt>
      <trkpt lat="49.618" lon="4.97322">
        <ele>258.73</ele>
        <time>2020-06-23T11:36:20Z</time>
      </trkpt>
      <trkpt lat="49.61796" lon="4.97302">
        <ele>257.29</ele>
        <time>2020-06-23T11:36:36Z</time>
      </trkpt>
      <trkpt lat="49.6179" lon="4.97284">
        <ele>256.33</ele>
        <time>2020-06-23T11:36:51Z</time>
      </trkpt>
      <trkpt lat="49.61784" lon="4.97265">
        <ele>254.89</ele>
        <time>2020-06-23T11:37:04Z</time>
      </trkpt>
      <trkpt lat="49.61778" lon="4.9724">
        <ele>252.48</ele>
        <time>2020-06-23T11:37:20Z</time>
      </trkpt>
      <trkpt lat="49.61772" lon="4.97221">
        <ele>248.16</ele>
        <time>2020-06-23T11:37:35Z</time>
      </trkpt>
      <trkpt lat="49.61766" lon="4.97197">
        <ele>244.79</ele>
        <time>2020-06-23T11:37:53Z</time>
      </trkpt>
      <trkpt lat="49.6176" lon="4.97166">
        <ele>242.87</ele>
        <time>2020-06-23T11:38:11Z</time>
      </trkpt>
      <trkpt lat="49.61758" lon="4.97156">
        <ele>241.91</ele>
        <time>2020-06-23T11:38:18Z</time>
      </trkpt>
      <trkpt lat="49.61748" lon="4.97153">
        <ele>241.43</ele>
        <time>2020-06-23T11:38:29Z</time>
      </trkpt>
      <trkpt lat="49.61745" lon="4.97157">
        <ele>242.39</ele>
        <time>2020-06-23T11:38:33Z</time>
      </trkpt>
      <trkpt lat="49.61731" lon="4.97174">
        <ele>245.27</ele>
        <time>2020-06-23T11:38:49Z</time>
      </trkpt>
      <trkpt lat="49.61724" lon="4.97182">
        <ele>246.72</ele>
        <time>2020-06-23T11:38:58Z</time>
      </trkpt>
      <trkpt lat="49.61719" lon="4.97185">
        <ele>247.2</ele>
        <time>2020-06-23T11:39:02Z</time>
      </trkpt>
      <trkpt lat="49.61705" lon="4.97206">
        <ele>247.68</ele>
        <time>2020-06-23T11:39:19Z</time>
      </trkpt>
      <trkpt lat="49.61701" lon="4.97215">
        <ele>247.68</ele>
        <time>2020-06-23T11:39:27Z</time>
      </trkpt>
      <trkpt lat="49.6169" lon="4.97236">
        <ele>247.68</ele>
        <time>2020-06-23T11:39:43Z</time>
      </trkpt>
      <trkpt lat="49.6168" lon="4.97254">
        <ele>248.16</ele>
        <time>2020-06-23T11:39:57Z</time>
      </trkpt>
      <trkpt lat="49.61668" lon="4.97274">
        <ele>250.56</ele>
        <time>2020-06-23T11:40:12Z</time>
      </trkpt>
      <trkpt lat="49.61658" lon="4.97288">
        <ele>251.52</ele>
        <time>2020-06-23T11:40:24Z</time>
      </trkpt>
      <trkpt lat="49.61646" lon="4.97303">
        <ele>252</ele>
        <time>2020-06-23T11:40:38Z</time>
      </trkpt>
      <trkpt lat="49.61643" lon="4.97307">
        <ele>252</ele>
        <time>2020-06-23T11:40:41Z</time>
      </trkpt>
      <trkpt lat="49.61633" lon="4.9732">
        <ele>252.48</ele>
        <time>2020-06-23T11:40:53Z</time>
      </trkpt>
      <trkpt lat="49.61626" lon="4.97335">
        <ele>252.96</ele>
        <time>2020-06-23T11:41:05Z</time>
      </trkpt>
      <trkpt lat="49.61619" lon="4.97343">
        <ele>253.44</ele>
        <time>2020-06-23T11:41:14Z</time>
      </trkpt>
      <trkpt lat="49.61615" lon="4.97348">
        <ele>253.93</ele>
        <time>2020-06-23T11:41:18Z</time>
      </trkpt>
      <trkpt lat="49.61607" lon="4.97362">
        <ele>254.41</ele>
        <time>2020-06-23T11:41:29Z</time>
      </trkpt>
      <trkpt lat="49.61604" lon="4.97368">
        <ele>254.89</ele>
        <time>2020-06-23T11:41:33Z</time>
      </trkpt>
      <trkpt lat="49.61591" lon="4.97385">
        <ele>255.37</ele>
        <time>2020-06-23T11:41:49Z</time>
      </trkpt>
      <trkpt lat="49.61588" lon="4.97388">
        <ele>255.85</ele>
        <time>2020-06-23T11:41:53Z</time>
      </trkpt>
      <trkpt lat="49.61575" lon="4.97409">
        <ele>255.85</ele>
        <time>2020-06-23T11:42:09Z</time>
      </trkpt>
      <trkpt lat="49.61563" lon="4.97425">
        <ele>256.33</ele>
        <time>2020-06-23T11:42:22Z</time>
      </trkpt>
      <trkpt lat="49.61554" lon="4.97445">
        <ele>257.77</ele>
        <time>2020-06-23T11:42:37Z</time>
      </trkpt>
      <trkpt lat="49.61542" lon="4.97465">
        <ele>258.25</ele>
        <time>2020-06-23T11:42:52Z</time>
      </trkpt>
      <trkpt lat="49.6153" lon="4.97484">
        <ele>259.69</ele>
        <time>2020-06-23T11:43:09Z</time>
      </trkpt>
      <trkpt lat="49.61528" lon="4.97486">
        <ele>259.69</ele>
        <time>2020-06-23T11:43:11Z</time>
      </trkpt>
      <trkpt lat="49.61523" lon="4.97494">
        <ele>261.14</ele>
        <time>2020-06-23T11:43:19Z</time>
      </trkpt>
      <trkpt lat="49.61512" lon="4.97506">
        <ele>263.06</ele>
        <time>2020-06-23T11:43:32Z</time>
      </trkpt>
      <trkpt lat="49.61511" lon="4.97508">
        <ele>263.54</ele>
        <time>2020-06-23T11:43:35Z</time>
      </trkpt>
      <trkpt lat="49.615" lon="4.9752">
        <ele>264.02</ele>
        <time>2020-06-23T11:43:47Z</time>
      </trkpt>
      <trkpt lat="49.61491" lon="4.97529">
        <ele>264.02</ele>
        <time>2020-06-23T11:44:00Z</time>
      </trkpt>
      <trkpt lat="49.61486" lon="4.97535">
        <ele>264.98</ele>
        <time>2020-06-23T11:44:06Z</time>
      </trkpt>
      <trkpt lat="49.61477" lon="4.97544">
        <ele>265.94</ele>
        <time>2020-06-23T11:44:17Z</time>
      </trkpt>
      <trkpt lat="49.61475" lon="4.97547">
        <ele>266.42</ele>
        <time>2020-06-23T11:44:20Z</time>
      </trkpt>
      <trkpt lat="49.61474" lon="4.97549">
        <ele>266.42</ele>
        <time>2020-06-23T11:44:22Z</time>
      </trkpt>
      <trkpt lat="49.61464" lon="4.97565">
        <ele>267.38</ele>
        <time>2020-06-23T11:44:34Z</time>
      </trkpt>
      <trkpt lat="49.61461" lon="4.9757">
        <ele>267.86</ele>
        <time>2020-06-23T11:44:39Z</time>
      </trkpt>
      <trkpt lat="49.61451" lon="4.97581">
        <ele>269.31</ele>
        <time>2020-06-23T11:44:50Z</time>
      </trkpt>
      <trkpt lat="49.61449" lon="4.97587">
        <ele>269.79</ele>
        <time>2020-06-23T11:44:55Z</time>
      </trkpt>
      <trkpt lat="49.6144" lon="4.97599">
        <ele>271.23</ele>
        <time>2020-06-23T11:45:06Z</time>
      </trkpt>
      <trkpt lat="49.6143" lon="4.97613">
        <ele>272.67</ele>
        <time>2020-06-23T11:45:20Z</time>
      </trkpt>
      <trkpt lat="49.61428" lon="4.97616">
        <ele>273.15</ele>
        <time>2020-06-23T11:45:23Z</time>
      </trkpt>
      <trkpt lat="49.61418" lon="4.9763">
        <ele>275.07</ele>
        <time>2020-06-23T11:45:36Z</time>
      </trkpt>
      <trkpt lat="49.61407" lon="4.97642">
        <ele>276.52</ele>
        <time>2020-06-23T11:45:50Z</time>
      </trkpt>
      <trkpt lat="49.61396" lon="4.97654">
        <ele>278.92</ele>
        <time>2020-06-23T11:46:04Z</time>
      </trkpt>
      <trkpt lat="49.61385" lon="4.97664">
        <ele>279.88</ele>
        <time>2020-06-23T11:46:16Z</time>
      </trkpt>
      <trkpt lat="49.61377" lon="4.97672">
        <ele>281.32</ele>
        <time>2020-06-23T11:46:27Z</time>
      </trkpt>
      <trkpt lat="49.61366" lon="4.97682">
        <ele>282.28</ele>
        <time>2020-06-23T11:46:40Z</time>
      </trkpt>
      <trkpt lat="49.61356" lon="4.97689">
        <ele>284.69</ele>
        <time>2020-06-23T11:46:52Z</time>
      </trkpt>
      <trkpt lat="49.61345" lon="4.97699">
        <ele>285.65</ele>
        <time>2020-06-23T11:47:05Z</time>
      </trkpt>
      <trkpt lat="49.61334" lon="4.97709">
        <ele>287.09</ele>
        <time>2020-06-23T11:47:19Z</time>
      </trkpt>
      <trkpt lat="49.61332" lon="4.9771">
        <ele>287.09</ele>
        <time>2020-06-23T11:47:21Z</time>
      </trkpt>
      <trkpt lat="49.61319" lon="4.97719">
        <ele>288.05</ele>
        <time>2020-06-23T11:47:35Z</time>
      </trkpt>
      <trkpt lat="49.61313" lon="4.97727">
        <ele>288.05</ele>
        <time>2020-06-23T11:47:49Z</time>
      </trkpt>
      <trkpt lat="49.61313" lon="4.97729">
        <ele>285.65</ele>
        <time>2020-06-23T11:48:13Z</time>
      </trkpt>
      <trkpt lat="49.61306" lon="4.97732">
        <ele>286.61</ele>
        <time>2020-06-23T11:48:20Z</time>
      </trkpt>
      <trkpt lat="49.61294" lon="4.97743">
        <ele>289.49</ele>
        <time>2020-06-23T11:48:32Z</time>
      </trkpt>
      <trkpt lat="49.61282" lon="4.9775">
        <ele>291.9</ele>
        <time>2020-06-23T11:48:45Z</time>
      </trkpt>
      <trkpt lat="49.61269" lon="4.97758">
        <ele>292.86</ele>
        <time>2020-06-23T11:48:58Z</time>
      </trkpt>
      <trkpt lat="49.61257" lon="4.97765">
        <ele>293.82</ele>
        <time>2020-06-23T11:49:11Z</time>
      </trkpt>
      <trkpt lat="49.61248" lon="4.9777">
        <ele>293.82</ele>
        <time>2020-06-23T11:49:22Z</time>
      </trkpt>
      <trkpt lat="49.61235" lon="4.97774">
        <ele>294.3</ele>
        <time>2020-06-23T11:49:34Z</time>
      </trkpt>
      <trkpt lat="49.61225" lon="4.97782">
        <ele>294.78</ele>
        <time>2020-06-23T11:49:47Z</time>
      </trkpt>
      <trkpt lat="49.61214" lon="4.97794">
        <ele>295.26</ele>
        <time>2020-06-23T11:50:02Z</time>
      </trkpt>
      <trkpt lat="49.61212" lon="4.97795">
        <ele>295.26</ele>
        <time>2020-06-23T11:50:04Z</time>
      </trkpt>
      <trkpt lat="49.61199" lon="4.97808">
        <ele>294.3</ele>
        <time>2020-06-23T11:50:20Z</time>
      </trkpt>
      <trkpt lat="49.61187" lon="4.97813">
        <ele>293.82</ele>
        <time>2020-06-23T11:50:36Z</time>
      </trkpt>
      <trkpt lat="49.61175" lon="4.97824">
        <ele>295.26</ele>
        <time>2020-06-23T11:50:52Z</time>
      </trkpt>
      <trkpt lat="49.6116" lon="4.97838">
        <ele>298.15</ele>
        <time>2020-06-23T11:51:10Z</time>
      </trkpt>
      <trkpt lat="49.61148" lon="4.97852">
        <ele>299.59</ele>
        <time>2020-06-23T11:51:26Z</time>
      </trkpt>
      <trkpt lat="49.61136" lon="4.97869">
        <ele>302.47</ele>
        <time>2020-06-23T11:51:43Z</time>
      </trkpt>
      <trkpt lat="49.61127" lon="4.97882">
        <ele>306.32</ele>
        <time>2020-06-23T11:51:59Z</time>
      </trkpt>
      <trkpt lat="49.61116" lon="4.979">
        <ele>309.2</ele>
        <time>2020-06-23T11:52:18Z</time>
      </trkpt>
      <trkpt lat="49.61106" lon="4.97919">
        <ele>311.6</ele>
        <time>2020-06-23T11:52:34Z</time>
      </trkpt>
      <trkpt lat="49.61103" lon="4.97929">
        <ele>313.53</ele>
        <time>2020-06-23T11:52:42Z</time>
      </trkpt>
      <trkpt lat="49.611" lon="4.97932">
        <ele>314.97</ele>
        <time>2020-06-23T11:52:56Z</time>
      </trkpt>
      <trkpt lat="49.611" lon="4.97927">
        <ele>315.93</ele>
        <time>2020-06-23T11:53:13Z</time>
      </trkpt>
      <trkpt lat="49.611" lon="4.97921">
        <ele>316.41</ele>
        <time>2020-06-23T11:53:31Z</time>
      </trkpt>
      <trkpt lat="49.61098" lon="4.97905">
        <ele>318.33</ele>
        <time>2020-06-23T11:53:47Z</time>
      </trkpt>
      <trkpt lat="49.61096" lon="4.97897">
        <ele>318.33</ele>
        <time>2020-06-23T11:54:05Z</time>
      </trkpt>
      <trkpt lat="49.61096" lon="4.97883">
        <ele>321.22</ele>
        <time>2020-06-23T11:54:19Z</time>
      </trkpt>
      <trkpt lat="49.61096" lon="4.97866">
        <ele>320.74</ele>
        <time>2020-06-23T11:54:38Z</time>
      </trkpt>
      <trkpt lat="49.61099" lon="4.97853">
        <ele>318.33</ele>
        <time>2020-06-23T11:54:55Z</time>
      </trkpt>
      <trkpt lat="49.61102" lon="4.97811">
        <ele>319.3</ele>
        <time>2020-06-23T11:55:16Z</time>
      </trkpt>
      <trkpt lat="49.61107" lon="4.97799">
        <ele>318.33</ele>
        <time>2020-06-23T11:55:33Z</time>
      </trkpt>
      <trkpt lat="49.61112" lon="4.97766">
        <ele>315.93</ele>
        <time>2020-06-23T11:55:52Z</time>
      </trkpt>
      <trkpt lat="49.61113" lon="4.97743">
        <ele>312.57</ele>
        <time>2020-06-23T11:56:11Z</time>
      </trkpt>
      <trkpt lat="49.61114" lon="4.97728">
        <ele>311.6</ele>
        <time>2020-06-23T11:56:29Z</time>
      </trkpt>
      <trkpt lat="49.61115" lon="4.97715">
        <ele>309.2</ele>
        <time>2020-06-23T11:56:46Z</time>
      </trkpt>
      <trkpt lat="49.61114" lon="4.97695">
        <ele>308.24</ele>
        <time>2020-06-23T11:57:04Z</time>
      </trkpt>
      <trkpt lat="49.61115" lon="4.97668">
        <ele>306.32</ele>
        <time>2020-06-23T11:57:23Z</time>
      </trkpt>
      <trkpt lat="49.61117" lon="4.97653">
        <ele>304.88</ele>
        <time>2020-06-23T11:57:39Z</time>
      </trkpt>
      <trkpt lat="49.61119" lon="4.97636">
        <ele>305.36</ele>
        <time>2020-06-23T11:57:54Z</time>
      </trkpt>
      <trkpt lat="49.61119" lon="4.97621">
        <ele>304.88</ele>
        <time>2020-06-23T11:58:10Z</time>
      </trkpt>
      <trkpt lat="49.6112" lon="4.97601">
        <ele>303.43</ele>
        <time>2020-06-23T11:58:25Z</time>
      </trkpt>
      <trkpt lat="49.61124" lon="4.97584">
        <ele>300.55</ele>
        <time>2020-06-23T11:58:41Z</time>
      </trkpt>
      <trkpt lat="49.61126" lon="4.9756">
        <ele>300.55</ele>
        <time>2020-06-23T11:59:01Z</time>
      </trkpt>
      <trkpt lat="49.61125" lon="4.97545">
        <ele>299.59</ele>
        <time>2020-06-23T11:59:17Z</time>
      </trkpt>
      <trkpt lat="49.61125" lon="4.97522">
        <ele>301.51</ele>
        <time>2020-06-23T11:59:33Z</time>
      </trkpt>
      <trkpt lat="49.61124" lon="4.97495">
        <ele>302.95</ele>
        <time>2020-06-23T11:59:50Z</time>
      </trkpt>
      <trkpt lat="49.61122" lon="4.97468">
        <ele>304.88</ele>
        <time>2020-06-23T12:00:06Z</time>
      </trkpt>
      <trkpt lat="49.61122" lon="4.97439">
        <ele>306.32</ele>
        <time>2020-06-23T12:00:18Z</time>
      </trkpt>
      <trkpt lat="49.61123" lon="4.97389">
        <ele>307.28</ele>
        <time>2020-06-23T12:00:36Z</time>
      </trkpt>
      <trkpt lat="49.61124" lon="4.9737">
        <ele>306.32</ele>
        <time>2020-06-23T12:00:50Z</time>
      </trkpt>
      <trkpt lat="49.61124" lon="4.97354">
        <ele>306.8</ele>
        <time>2020-06-23T12:01:01Z</time>
      </trkpt>
      <trkpt lat="49.61121" lon="4.97312">
        <ele>301.99</ele>
        <time>2020-06-23T12:01:20Z</time>
      </trkpt>
      <trkpt lat="49.61122" lon="4.97288">
        <ele>300.07</ele>
        <time>2020-06-23T12:01:37Z</time>
      </trkpt>
      <trkpt lat="49.61122" lon="4.97261">
        <ele>297.67</ele>
        <time>2020-06-23T12:01:53Z</time>
      </trkpt>
      <trkpt lat="49.61125" lon="4.97246">
        <ele>297.18</ele>
        <time>2020-06-23T12:02:07Z</time>
      </trkpt>
      <trkpt lat="49.61126" lon="4.97223">
        <ele>294.78</ele>
        <time>2020-06-23T12:02:21Z</time>
      </trkpt>
      <trkpt lat="49.61126" lon="4.97203">
        <ele>292.86</ele>
        <time>2020-06-23T12:02:34Z</time>
      </trkpt>
      <trkpt lat="49.61124" lon="4.97174">
        <ele>289.97</ele>
        <time>2020-06-23T12:02:49Z</time>
      </trkpt>
      <trkpt lat="49.61125" lon="4.97166">
        <ele>290.46</ele>
        <time>2020-06-23T12:02:52Z</time>
      </trkpt>
      <trkpt lat="49.61126" lon="4.97155">
        <ele>291.42</ele>
        <time>2020-06-23T12:03:08Z</time>
      </trkpt>
      <trkpt lat="49.61127" lon="4.97136">
        <ele>291.42</ele>
        <time>2020-06-23T12:03:25Z</time>
      </trkpt>
      <trkpt lat="49.61126" lon="4.97112">
        <ele>290.94</ele>
        <time>2020-06-23T12:03:39Z</time>
      </trkpt>
      <trkpt lat="49.61128" lon="4.97089">
        <ele>288.53</ele>
        <time>2020-06-23T12:03:54Z</time>
      </trkpt>
      <trkpt lat="49.6113" lon="4.97061">
        <ele>288.53</ele>
        <time>2020-06-23T12:04:09Z</time>
      </trkpt>
      <trkpt lat="49.61129" lon="4.97032">
        <ele>285.65</ele>
        <time>2020-06-23T12:04:25Z</time>
      </trkpt>
      <trkpt lat="49.61128" lon="4.9701">
        <ele>285.65</ele>
        <time>2020-06-23T12:04:38Z</time>
      </trkpt>
      <trkpt lat="49.61133" lon="4.96984">
        <ele>287.57</ele>
        <time>2020-06-23T12:04:53Z</time>
      </trkpt>
      <trkpt lat="49.61134" lon="4.9698">
        <ele>288.05</ele>
        <time>2020-06-23T12:04:58Z</time>
      </trkpt>
      <trkpt lat="49.61135" lon="4.96947">
        <ele>288.05</ele>
        <time>2020-06-23T12:05:16Z</time>
      </trkpt>
      <trkpt lat="49.61135" lon="4.9693">
        <ele>289.49</ele>
        <time>2020-06-23T12:05:34Z</time>
      </trkpt>
      <trkpt lat="49.61138" lon="4.96904">
        <ele>289.97</ele>
        <time>2020-06-23T12:05:51Z</time>
      </trkpt>
      <trkpt lat="49.61137" lon="4.96878">
        <ele>292.38</ele>
        <time>2020-06-23T12:06:07Z</time>
      </trkpt>
      <trkpt lat="49.61134" lon="4.96855">
        <ele>292.38</ele>
        <time>2020-06-23T12:06:22Z</time>
      </trkpt>
      <trkpt lat="49.61136" lon="4.96828">
        <ele>292.38</ele>
        <time>2020-06-23T12:06:37Z</time>
      </trkpt>
      <trkpt lat="49.61135" lon="4.96811">
        <ele>291.9</ele>
        <time>2020-06-23T12:06:47Z</time>
      </trkpt>
      <trkpt lat="49.61128" lon="4.96782">
        <ele>296.7</ele>
        <time>2020-06-23T12:07:02Z</time>
      </trkpt>
      <trkpt lat="49.61115" lon="4.96763">
        <ele>299.59</ele>
        <time>2020-06-23T12:07:16Z</time>
      </trkpt>
      <trkpt lat="49.61112" lon="4.96755">
        <ele>300.07</ele>
        <time>2020-06-23T12:07:26Z</time>
      </trkpt>
      <trkpt lat="49.61103" lon="4.96736">
        <ele>299.59</ele>
        <time>2020-06-23T12:07:41Z</time>
      </trkpt>
      <trkpt lat="49.61096" lon="4.96722">
        <ele>300.55</ele>
        <time>2020-06-23T12:07:58Z</time>
      </trkpt>
      <trkpt lat="49.61087" lon="4.96697">
        <ele>301.03</ele>
        <time>2020-06-23T12:08:13Z</time>
      </trkpt>
      <trkpt lat="49.61082" lon="4.96686">
        <ele>301.99</ele>
        <time>2020-06-23T12:08:28Z</time>
      </trkpt>
      <trkpt lat="49.61076" lon="4.96668">
        <ele>299.59</ele>
        <time>2020-06-23T12:08:44Z</time>
      </trkpt>
      <trkpt lat="49.61068" lon="4.96651">
        <ele>298.63</ele>
        <time>2020-06-23T12:08:59Z</time>
      </trkpt>
      <trkpt lat="49.61059" lon="4.96631">
        <ele>295.26</ele>
        <time>2020-06-23T12:09:16Z</time>
      </trkpt>
      <trkpt lat="49.61055" lon="4.96606">
        <ele>292.38</ele>
        <time>2020-06-23T12:09:31Z</time>
      </trkpt>
      <trkpt lat="49.61048" lon="4.96584">
        <ele>289.49</ele>
        <time>2020-06-23T12:09:46Z</time>
      </trkpt>
      <trkpt lat="49.61045" lon="4.96569">
        <ele>291.42</ele>
        <time>2020-06-23T12:10:01Z</time>
      </trkpt>
      <trkpt lat="49.61043" lon="4.96569">
        <ele>291.9</ele>
        <time>2020-06-23T12:10:05Z</time>
      </trkpt>
      <trkpt lat="49.61033" lon="4.96577">
        <ele>290.94</ele>
        <time>2020-06-23T12:10:21Z</time>
      </trkpt>
      <trkpt lat="49.61021" lon="4.96592">
        <ele>289.49</ele>
        <time>2020-06-23T12:10:38Z</time>
      </trkpt>
      <trkpt lat="49.61016" lon="4.966">
        <ele>289.49</ele>
        <time>2020-06-23T12:10:47Z</time>
      </trkpt>
      <trkpt lat="49.6101" lon="4.96617">
        <ele>288.53</ele>
        <time>2020-06-23T12:10:59Z</time>
      </trkpt>
      <trkpt lat="49.61003" lon="4.96636">
        <ele>286.61</ele>
        <time>2020-06-23T12:11:14Z</time>
      </trkpt>
      <trkpt lat="49.60997" lon="4.96646">
        <ele>286.13</ele>
        <time>2020-06-23T12:11:27Z</time>
      </trkpt>
      <trkpt lat="49.60994" lon="4.96671">
        <ele>284.21</ele>
        <time>2020-06-23T12:11:42Z</time>
      </trkpt>
      <trkpt lat="49.60992" lon="4.9669">
        <ele>284.69</ele>
        <time>2020-06-23T12:11:56Z</time>
      </trkpt>
      <trkpt lat="49.60986" lon="4.96708">
        <ele>284.69</ele>
        <time>2020-06-23T12:12:11Z</time>
      </trkpt>
      <trkpt lat="49.60983" lon="4.96725">
        <ele>283.73</ele>
        <time>2020-06-23T12:12:26Z</time>
      </trkpt>
      <trkpt lat="49.60983" lon="4.9675">
        <ele>284.69</ele>
        <time>2020-06-23T12:12:42Z</time>
      </trkpt>
      <trkpt lat="49.60984" lon="4.96776">
        <ele>287.09</ele>
        <time>2020-06-23T12:12:58Z</time>
      </trkpt>
      <trkpt lat="49.60986" lon="4.96792">
        <ele>286.13</ele>
        <time>2020-06-23T12:13:13Z</time>
      </trkpt>
      <trkpt lat="49.60987" lon="4.96797">
        <ele>288.05</ele>
        <time>2020-06-23T12:13:29Z</time>
      </trkpt>
      <trkpt lat="49.60987" lon="4.96802">
        <ele>288.53</ele>
        <time>2020-06-23T12:13:46Z</time>
      </trkpt>
      <trkpt lat="49.6098" lon="4.96802">
        <ele>289.97</ele>
        <time>2020-06-23T12:14:01Z</time>
      </trkpt>
      <trkpt lat="49.60963" lon="4.96809">
        <ele>290.46</ele>
        <time>2020-06-23T12:14:18Z</time>
      </trkpt>
      <trkpt lat="49.60945" lon="4.96816">
        <ele>291.42</ele>
        <time>2020-06-23T12:14:32Z</time>
      </trkpt>
      <trkpt lat="49.60933" lon="4.96819">
        <ele>290.46</ele>
        <time>2020-06-23T12:14:51Z</time>
      </trkpt>
      <trkpt lat="49.60916" lon="4.96817">
        <ele>291.42</ele>
        <time>2020-06-23T12:15:09Z</time>
      </trkpt>
      <trkpt lat="49.60905" lon="4.96819">
        <ele>290.94</ele>
        <time>2020-06-23T12:15:25Z</time>
      </trkpt>
      <trkpt lat="49.60902" lon="4.96819">
        <ele>289.97</ele>
        <time>2020-06-23T12:15:39Z</time>
      </trkpt>
      <trkpt lat="49.60897" lon="4.96819">
        <ele>286.13</ele>
        <time>2020-06-23T12:15:58Z</time>
      </trkpt>
      <trkpt lat="49.60891" lon="4.96818">
        <ele>285.17</ele>
        <time>2020-06-23T12:16:18Z</time>
      </trkpt>
      <trkpt lat="49.60885" lon="4.96816">
        <ele>283.73</ele>
        <time>2020-06-23T12:16:36Z</time>
      </trkpt>
      <trkpt lat="49.60881" lon="4.96815">
        <ele>282.77</ele>
        <time>2020-06-23T12:16:55Z</time>
      </trkpt>
      <trkpt lat="49.60875" lon="4.96813">
        <ele>282.77</ele>
        <time>2020-06-23T12:17:13Z</time>
      </trkpt>
      <trkpt lat="49.6087" lon="4.96813">
        <ele>282.28</ele>
        <time>2020-06-23T12:17:31Z</time>
      </trkpt>
      <trkpt lat="49.60866" lon="4.96814">
        <ele>282.28</ele>
        <time>2020-06-23T12:17:47Z</time>
      </trkpt>
      <trkpt lat="49.60861" lon="4.96814">
        <ele>279.88</ele>
        <time>2020-06-23T12:18:07Z</time>
      </trkpt>
      <trkpt lat="49.60856" lon="4.96816">
        <ele>277.96</ele>
        <time>2020-06-23T12:18:23Z</time>
      </trkpt>
      <trkpt lat="49.60852" lon="4.96816">
        <ele>276.04</ele>
        <time>2020-06-23T12:18:42Z</time>
      </trkpt>
      <trkpt lat="49.60846" lon="4.96818">
        <ele>270.75</ele>
        <time>2020-06-23T12:19:03Z</time>
      </trkpt>
      <trkpt lat="49.60842" lon="4.96818">
        <ele>264.5</ele>
        <time>2020-06-23T12:19:20Z</time>
      </trkpt>
      <trkpt lat="49.60836" lon="4.96819">
        <ele>259.21</ele>
        <time>2020-06-23T12:19:41Z</time>
      </trkpt>
      <trkpt lat="49.60833" lon="4.96819">
        <ele>258.25</ele>
        <time>2020-06-23T12:20:09Z</time>
      </trkpt>
      <trkpt lat="49.6083" lon="4.96821">
        <ele>255.85</ele>
        <time>2020-06-23T12:20:35Z</time>
      </trkpt>
      <trkpt lat="49.60828" lon="4.96822">
        <ele>253.93</ele>
        <time>2020-06-23T12:21:00Z</time>
      </trkpt>
      <trkpt lat="49.60826" lon="4.96824">
        <ele>253.93</ele>
        <time>2020-06-23T12:21:22Z</time>
      </trkpt>
      <trkpt lat="49.60821" lon="4.96825">
        <ele>255.85</ele>
        <time>2020-06-23T12:21:40Z</time>
      </trkpt>
      <trkpt lat="49.60813" lon="4.96829">
        <ele>255.37</ele>
        <time>2020-06-23T12:21:54Z</time>
      </trkpt>
      <trkpt lat="49.60807" lon="4.96838">
        <ele>254.89</ele>
        <time>2020-06-23T12:22:06Z</time>
      </trkpt>
      <trkpt lat="49.608" lon="4.96858">
        <ele>253.93</ele>
        <time>2020-06-23T12:22:18Z</time>
      </trkpt>
      <trkpt lat="49.60792" lon="4.96879">
        <ele>252.48</ele>
        <time>2020-06-23T12:22:31Z</time>
      </trkpt>
      <trkpt lat="49.60789" lon="4.96886">
        <ele>252.48</ele>
        <time>2020-06-23T12:22:38Z</time>
      </trkpt>
      <trkpt lat="49.60783" lon="4.96905">
        <ele>253.93</ele>
        <time>2020-06-23T12:22:51Z</time>
      </trkpt>
      <trkpt lat="49.60778" lon="4.96924">
        <ele>252.96</ele>
        <time>2020-06-23T12:23:03Z</time>
      </trkpt>
      <trkpt lat="49.60772" lon="4.96943">
        <ele>252</ele>
        <time>2020-06-23T12:23:16Z</time>
      </trkpt>
      <trkpt lat="49.60768" lon="4.96962">
        <ele>250.08</ele>
        <time>2020-06-23T12:23:29Z</time>
      </trkpt>
      <trkpt lat="49.60765" lon="4.96979">
        <ele>248.64</ele>
        <time>2020-06-23T12:23:41Z</time>
      </trkpt>
      <trkpt lat="49.60764" lon="4.96984">
        <ele>248.64</ele>
        <time>2020-06-23T12:23:48Z</time>
      </trkpt>
      <trkpt lat="49.60762" lon="4.97005">
        <ele>246.72</ele>
        <time>2020-06-23T12:24:01Z</time>
      </trkpt>
      <trkpt lat="49.60761" lon="4.9702">
        <ele>244.79</ele>
        <time>2020-06-23T12:24:11Z</time>
      </trkpt>
      <trkpt lat="49.6076" lon="4.97027">
        <ele>244.79</ele>
        <time>2020-06-23T12:24:15Z</time>
      </trkpt>
      <trkpt lat="49.60758" lon="4.9705">
        <ele>244.31</ele>
        <time>2020-06-23T12:24:29Z</time>
      </trkpt>
      <trkpt lat="49.60757" lon="4.97063">
        <ele>244.31</ele>
        <time>2020-06-23T12:24:38Z</time>
      </trkpt>
      <trkpt lat="49.60754" lon="4.97084">
        <ele>243.83</ele>
        <time>2020-06-23T12:24:51Z</time>
      </trkpt>
      <trkpt lat="49.60754" lon="4.97087">
        <ele>243.35</ele>
        <time>2020-06-23T12:24:53Z</time>
      </trkpt>
      <trkpt lat="49.60753" lon="4.97109">
        <ele>243.35</ele>
        <time>2020-06-23T12:25:06Z</time>
      </trkpt>
      <trkpt lat="49.60752" lon="4.97127">
        <ele>243.83</ele>
        <time>2020-06-23T12:25:18Z</time>
      </trkpt>
      <trkpt lat="49.6075" lon="4.97147">
        <ele>244.79</ele>
        <time>2020-06-23T12:25:31Z</time>
      </trkpt>
      <trkpt lat="49.60748" lon="4.97172">
        <ele>245.27</ele>
        <time>2020-06-23T12:25:45Z</time>
      </trkpt>
      <trkpt lat="49.60748" lon="4.97176">
        <ele>245.75</ele>
        <time>2020-06-23T12:25:50Z</time>
      </trkpt>
      <trkpt lat="49.60748" lon="4.97198">
        <ele>245.75</ele>
        <time>2020-06-23T12:26:04Z</time>
      </trkpt>
      <trkpt lat="49.60748" lon="4.97219">
        <ele>245.27</ele>
        <time>2020-06-23T12:26:17Z</time>
      </trkpt>
      <trkpt lat="49.60747" lon="4.97225">
        <ele>244.79</ele>
        <time>2020-06-23T12:26:20Z</time>
      </trkpt>
      <trkpt lat="49.60745" lon="4.97247">
        <ele>242.39</ele>
        <time>2020-06-23T12:26:34Z</time>
      </trkpt>
      <trkpt lat="49.60745" lon="4.9726">
        <ele>240.47</ele>
        <time>2020-06-23T12:26:44Z</time>
      </trkpt>
      <trkpt lat="49.60744" lon="4.97277">
        <ele>239.02</ele>
        <time>2020-06-23T12:26:56Z</time>
      </trkpt>
      <trkpt lat="49.60744" lon="4.97292">
        <ele>238.06</ele>
        <time>2020-06-23T12:27:08Z</time>
      </trkpt>
      <trkpt lat="49.60745" lon="4.97298">
        <ele>237.58</ele>
        <time>2020-06-23T12:27:11Z</time>
      </trkpt>
      <trkpt lat="49.60746" lon="4.97321">
        <ele>238.06</ele>
        <time>2020-06-23T12:27:24Z</time>
      </trkpt>
      <trkpt lat="49.60747" lon="4.9734">
        <ele>239.99</ele>
        <time>2020-06-23T12:27:36Z</time>
      </trkpt>
      <trkpt lat="49.60749" lon="4.9736">
        <ele>244.31</ele>
        <time>2020-06-23T12:27:48Z</time>
      </trkpt>
      <trkpt lat="49.60751" lon="4.9738">
        <ele>248.16</ele>
        <time>2020-06-23T12:28:01Z</time>
      </trkpt>
      <trkpt lat="49.60752" lon="4.97385">
        <ele>249.6</ele>
        <time>2020-06-23T12:28:05Z</time>
      </trkpt>
      <trkpt lat="49.60756" lon="4.97403">
        <ele>255.37</ele>
        <time>2020-06-23T12:28:19Z</time>
      </trkpt>
      <trkpt lat="49.6076" lon="4.97418">
        <ele>255.85</ele>
        <time>2020-06-23T12:28:34Z</time>
      </trkpt>
      <trkpt lat="49.60763" lon="4.9743">
        <ele>254.89</ele>
        <time>2020-06-23T12:28:46Z</time>
      </trkpt>
      <trkpt lat="49.60766" lon="4.9745">
        <ele>253.93</ele>
        <time>2020-06-23T12:28:57Z</time>
      </trkpt>
      <trkpt lat="49.6077" lon="4.97468">
        <ele>255.85</ele>
        <time>2020-06-23T12:29:10Z</time>
      </trkpt>
      <trkpt lat="49.60772" lon="4.97471">
        <ele>256.81</ele>
        <time>2020-06-23T12:29:14Z</time>
      </trkpt>
      <trkpt lat="49.60773" lon="4.97489">
        <ele>259.21</ele>
        <time>2020-06-23T12:29:27Z</time>
      </trkpt>
      <trkpt lat="49.60773" lon="4.97506">
        <ele>261.14</ele>
        <time>2020-06-23T12:29:40Z</time>
      </trkpt>
      <trkpt lat="49.60772" lon="4.97514">
        <ele>262.58</ele>
        <time>2020-06-23T12:29:48Z</time>
      </trkpt>
      <trkpt lat="49.60774" lon="4.9752">
        <ele>263.54</ele>
        <time>2020-06-23T12:30:01Z</time>
      </trkpt>
      <trkpt lat="49.60775" lon="4.97527">
        <ele>265.46</ele>
        <time>2020-06-23T12:30:15Z</time>
      </trkpt>
      <trkpt lat="49.60776" lon="4.97535">
        <ele>266.42</ele>
        <time>2020-06-23T12:30:25Z</time>
      </trkpt>
      <trkpt lat="49.6078" lon="4.97551">
        <ele>268.35</ele>
        <time>2020-06-23T12:30:37Z</time>
      </trkpt>
      <trkpt lat="49.60782" lon="4.97564">
        <ele>270.75</ele>
        <time>2020-06-23T12:30:50Z</time>
      </trkpt>
      <trkpt lat="49.6079" lon="4.97588">
        <ele>272.67</ele>
        <time>2020-06-23T12:31:04Z</time>
      </trkpt>
      <trkpt lat="49.60793" lon="4.97597">
        <ele>273.63</ele>
        <time>2020-06-23T12:31:19Z</time>
      </trkpt>
      <trkpt lat="49.60795" lon="4.9761">
        <ele>274.59</ele>
        <time>2020-06-23T12:31:36Z</time>
      </trkpt>
      <trkpt lat="49.60798" lon="4.97628">
        <ele>275.56</ele>
        <time>2020-06-23T12:31:48Z</time>
      </trkpt>
      <trkpt lat="49.60802" lon="4.97658">
        <ele>277.96</ele>
        <time>2020-06-23T12:32:03Z</time>
      </trkpt>
      <trkpt lat="49.60806" lon="4.97681">
        <ele>281.32</ele>
        <time>2020-06-23T12:32:16Z</time>
      </trkpt>
      <trkpt lat="49.60811" lon="4.97702">
        <ele>284.69</ele>
        <time>2020-06-23T12:32:30Z</time>
      </trkpt>
      <trkpt lat="49.60815" lon="4.97721">
        <ele>286.13</ele>
        <time>2020-06-23T12:32:45Z</time>
      </trkpt>
      <trkpt lat="49.60821" lon="4.97738">
        <ele>288.53</ele>
        <time>2020-06-23T12:33:00Z</time>
      </trkpt>
      <trkpt lat="49.60825" lon="4.97763">
        <ele>294.3</ele>
        <time>2020-06-23T12:33:17Z</time>
      </trkpt>
      <trkpt lat="49.60829" lon="4.97787">
        <ele>295.74</ele>
        <time>2020-06-23T12:33:34Z</time>
      </trkpt>
      <trkpt lat="49.60834" lon="4.97808">
        <ele>299.59</ele>
        <time>2020-06-23T12:33:48Z</time>
      </trkpt>
      <trkpt lat="49.60842" lon="4.97837">
        <ele>303.43</ele>
        <time>2020-06-23T12:34:04Z</time>
      </trkpt>
      <trkpt lat="49.60851" lon="4.97859">
        <ele>307.76</ele>
        <time>2020-06-23T12:34:20Z</time>
      </trkpt>
      <trkpt lat="49.60856" lon="4.97877">
        <ele>310.16</ele>
        <time>2020-06-23T12:34:35Z</time>
      </trkpt>
      <trkpt lat="49.60865" lon="4.97895">
        <ele>311.12</ele>
        <time>2020-06-23T12:34:48Z</time>
      </trkpt>
      <trkpt lat="49.60874" lon="4.97915">
        <ele>311.12</ele>
        <time>2020-06-23T12:35:02Z</time>
      </trkpt>
      <trkpt lat="49.60883" lon="4.97933">
        <ele>313.05</ele>
        <time>2020-06-23T12:35:16Z</time>
      </trkpt>
      <trkpt lat="49.6089" lon="4.97942">
        <ele>314.97</ele>
        <time>2020-06-23T12:35:27Z</time>
      </trkpt>
      <trkpt lat="49.60899" lon="4.97958">
        <ele>316.89</ele>
        <time>2020-06-23T12:35:40Z</time>
      </trkpt>
      <trkpt lat="49.60907" lon="4.97973">
        <ele>318.81</ele>
        <time>2020-06-23T12:35:52Z</time>
      </trkpt>
      <trkpt lat="49.60917" lon="4.97991">
        <ele>322.18</ele>
        <time>2020-06-23T12:36:08Z</time>
      </trkpt>
      <trkpt lat="49.60925" lon="4.98002">
        <ele>323.14</ele>
        <time>2020-06-23T12:36:22Z</time>
      </trkpt>
      <trkpt lat="49.60927" lon="4.98009">
        <ele>325.06</ele>
        <time>2020-06-23T12:36:40Z</time>
      </trkpt>
      <trkpt lat="49.60928" lon="4.98014">
        <ele>326.02</ele>
        <time>2020-06-23T12:37:05Z</time>
      </trkpt>
      <trkpt lat="49.60928" lon="4.98019">
        <ele>323.14</ele>
        <time>2020-06-23T12:37:31Z</time>
      </trkpt>
      <trkpt lat="49.60931" lon="4.9802">
        <ele>323.14</ele>
        <time>2020-06-23T12:37:48Z</time>
      </trkpt>
      <trkpt lat="49.60932" lon="4.98022">
        <ele>323.14</ele>
        <time>2020-06-23T12:38:06Z</time>
      </trkpt>
      <trkpt lat="49.60933" lon="4.98023">
        <ele>323.14</ele>
        <time>2020-06-23T12:38:08Z</time>
      </trkpt>
      <trkpt lat="49.60941" lon="4.98033">
        <ele>324.1</ele>
        <time>2020-06-23T12:38:22Z</time>
      </trkpt>
      <trkpt lat="49.60952" lon="4.98046">
        <ele>325.06</ele>
        <time>2020-06-23T12:38:34Z</time>
      </trkpt>
      <trkpt lat="49.60965" lon="4.98061">
        <ele>326.02</ele>
        <time>2020-06-23T12:38:50Z</time>
      </trkpt>
      <trkpt lat="49.60978" lon="4.98073">
        <ele>324.1</ele>
        <time>2020-06-23T12:39:03Z</time>
      </trkpt>
      <trkpt lat="49.60989" lon="4.98069">
        <ele>315.93</ele>
        <time>2020-06-23T12:39:20Z</time>
      </trkpt>
      <trkpt lat="49.60993" lon="4.98068">
        <ele>308.72</ele>
        <time>2020-06-23T12:39:38Z</time>
      </trkpt>
      <trkpt lat="49.60994" lon="4.9807">
        <ele>309.2</ele>
        <time>2020-06-23T12:40:04Z</time>
      </trkpt>
      <trkpt lat="49.60994" lon="4.98069">
        <ele>305.36</ele>
        <time>2020-06-23T12:40:30Z</time>
      </trkpt>
      <trkpt lat="49.60994" lon="4.98069">
        <ele>304.39</ele>
        <time>2020-06-23T12:40:50Z</time>
      </trkpt>
      <trkpt lat="49.60994" lon="4.98069">
        <ele>302.47</ele>
        <time>2020-06-23T12:41:08Z</time>
      </trkpt>
      <trkpt lat="49.60995" lon="4.98069">
        <ele>302.95</ele>
        <time>2020-06-23T12:41:27Z</time>
      </trkpt>
      <trkpt lat="49.60995" lon="4.98069">
        <ele>303.43</ele>
        <time>2020-06-23T12:41:46Z</time>
      </trkpt>
      <trkpt lat="49.60996" lon="4.9807">
        <ele>302.47</ele>
        <time>2020-06-23T12:42:05Z</time>
      </trkpt>
      <trkpt lat="49.60997" lon="4.98072">
        <ele>301.99</ele>
        <time>2020-06-23T12:42:27Z</time>
      </trkpt>
      <trkpt lat="49.60998" lon="4.98072">
        <ele>301.51</ele>
        <time>2020-06-23T12:42:53Z</time>
      </trkpt>
      <trkpt lat="49.60999" lon="4.98073">
        <ele>301.51</ele>
        <time>2020-06-23T12:43:16Z</time>
      </trkpt>
      <trkpt lat="49.61" lon="4.98074">
        <ele>302.95</ele>
        <time>2020-06-23T12:43:41Z</time>
      </trkpt>
      <trkpt lat="49.61001" lon="4.98074">
        <ele>303.43</ele>
        <time>2020-06-23T12:44:07Z</time>
      </trkpt>
      <trkpt lat="49.61001" lon="4.98074">
        <ele>303.43</ele>
        <time>2020-06-23T12:44:24Z</time>
      </trkpt>
      <trkpt lat="49.61002" lon="4.98075">
        <ele>303.43</ele>
        <time>2020-06-23T12:44:45Z</time>
      </trkpt>
      <trkpt lat="49.61002" lon="4.98076">
        <ele>303.43</ele>
        <time>2020-06-23T12:45:02Z</time>
      </trkpt>
      <trkpt lat="49.61002" lon="4.98079">
        <ele>302.47</ele>
        <time>2020-06-23T12:45:20Z</time>
      </trkpt>
      <trkpt lat="49.61002" lon="4.98081">
        <ele>301.99</ele>
        <time>2020-06-23T12:45:39Z</time>
      </trkpt>
      <trkpt lat="49.61003" lon="4.98082">
        <ele>302.47</ele>
        <time>2020-06-23T12:46:11Z</time>
      </trkpt>
      <trkpt lat="49.61004" lon="4.98082">
        <ele>301.99</ele>
        <time>2020-06-23T12:46:31Z</time>
      </trkpt>
      <trkpt lat="49.61005" lon="4.98081">
        <ele>301.51</ele>
        <time>2020-06-23T12:47:02Z</time>
      </trkpt>
      <trkpt lat="49.61005" lon="4.98082">
        <ele>302.47</ele>
        <time>2020-06-23T12:47:23Z</time>
      </trkpt>
      <trkpt lat="49.61006" lon="4.98082">
        <ele>301.99</ele>
        <time>2020-06-23T12:47:49Z</time>
      </trkpt>
      <trkpt lat="49.61008" lon="4.98083">
        <ele>302.47</ele>
        <time>2020-06-23T12:48:11Z</time>
      </trkpt>
      <trkpt lat="49.61009" lon="4.98082">
        <ele>302.95</ele>
        <time>2020-06-23T12:48:40Z</time>
      </trkpt>
      <trkpt lat="49.61009" lon="4.98081">
        <ele>302.95</ele>
        <time>2020-06-23T12:49:02Z</time>
      </trkpt>
      <trkpt lat="49.61009" lon="4.98082">
        <ele>302.95</ele>
        <time>2020-06-23T12:49:29Z</time>
      </trkpt>
      <trkpt lat="49.6101" lon="4.98082">
        <ele>302.95</ele>
        <time>2020-06-23T12:49:55Z</time>
      </trkpt>
      <trkpt lat="49.61009" lon="4.98083">
        <ele>302.47</ele>
        <time>2020-06-23T12:50:20Z</time>
      </trkpt>
      <trkpt lat="49.61008" lon="4.98082">
        <ele>302.95</ele>
        <time>2020-06-23T12:50:47Z</time>
      </trkpt>
      <trkpt lat="49.6101" lon="4.98086">
        <ele>303.91</ele>
        <time>2020-06-23T12:51:09Z</time>
      </trkpt>
      <trkpt lat="49.61016" lon="4.98099">
        <ele>302.95</ele>
        <time>2020-06-23T12:51:25Z</time>
      </trkpt>
      <trkpt lat="49.61025" lon="4.98117">
        <ele>304.88</ele>
        <time>2020-06-23T12:51:38Z</time>
      </trkpt>
      <trkpt lat="49.61039" lon="4.98135">
        <ele>305.84</ele>
        <time>2020-06-23T12:51:55Z</time>
      </trkpt>
      <trkpt lat="49.61045" lon="4.98143">
        <ele>306.8</ele>
        <time>2020-06-23T12:52:12Z</time>
      </trkpt>
      <trkpt lat="49.61048" lon="4.9815">
        <ele>308.24</ele>
        <time>2020-06-23T12:52:28Z</time>
      </trkpt>
      <trkpt lat="49.61052" lon="4.98159">
        <ele>309.68</ele>
        <time>2020-06-23T12:52:45Z</time>
      </trkpt>
      <trkpt lat="49.61063" lon="4.9818">
        <ele>307.76</ele>
        <time>2020-06-23T12:53:01Z</time>
      </trkpt>
      <trkpt lat="49.61077" lon="4.98204">
        <ele>309.2</ele>
        <time>2020-06-23T12:53:16Z</time>
      </trkpt>
      <trkpt lat="49.6108" lon="4.98211">
        <ele>308.72</ele>
        <time>2020-06-23T12:53:19Z</time>
      </trkpt>
      <trkpt lat="49.61099" lon="4.98243">
        <ele>307.76</ele>
        <time>2020-06-23T12:53:35Z</time>
      </trkpt>
      <trkpt lat="49.61109" lon="4.9826">
        <ele>307.28</ele>
        <time>2020-06-23T12:53:50Z</time>
      </trkpt>
      <trkpt lat="49.6111" lon="4.98263">
        <ele>307.28</ele>
        <time>2020-06-23T12:53:52Z</time>
      </trkpt>
      <trkpt lat="49.61116" lon="4.98278">
        <ele>308.24</ele>
        <time>2020-06-23T12:54:00Z</time>
      </trkpt>
      <trkpt lat="49.61129" lon="4.98304">
        <ele>309.68</ele>
        <time>2020-06-23T12:54:18Z</time>
      </trkpt>
      <trkpt lat="49.61144" lon="4.98319">
        <ele>309.68</ele>
        <time>2020-06-23T12:54:33Z</time>
      </trkpt>
      <trkpt lat="49.61154" lon="4.98336">
        <ele>307.76</ele>
        <time>2020-06-23T12:54:47Z</time>
      </trkpt>
      <trkpt lat="49.61161" lon="4.98346">
        <ele>307.28</ele>
        <time>2020-06-23T12:55:02Z</time>
      </trkpt>
      <trkpt lat="49.61161" lon="4.98347">
        <ele>306.8</ele>
        <time>2020-06-23T12:55:04Z</time>
      </trkpt>
      <trkpt lat="49.6117" lon="4.98366">
        <ele>305.36</ele>
        <time>2020-06-23T12:55:19Z</time>
      </trkpt>
      <trkpt lat="49.61177" lon="4.98374">
        <ele>304.39</ele>
        <time>2020-06-23T12:55:28Z</time>
      </trkpt>
      <trkpt lat="49.61185" lon="4.98377">
        <ele>304.88</ele>
        <time>2020-06-23T12:55:43Z</time>
      </trkpt>
      <trkpt lat="49.61191" lon="4.9839">
        <ele>304.88</ele>
        <time>2020-06-23T12:55:54Z</time>
      </trkpt>
      <trkpt lat="49.61203" lon="4.98409">
        <ele>303.91</ele>
        <time>2020-06-23T12:56:09Z</time>
      </trkpt>
      <trkpt lat="49.61216" lon="4.98424">
        <ele>301.99</ele>
        <time>2020-06-23T12:56:25Z</time>
      </trkpt>
      <trkpt lat="49.61226" lon="4.98435">
        <ele>303.91</ele>
        <time>2020-06-23T12:56:36Z</time>
      </trkpt>
      <trkpt lat="49.61231" lon="4.98444">
        <ele>303.91</ele>
        <time>2020-06-23T12:56:46Z</time>
      </trkpt>
      <trkpt lat="49.61232" lon="4.98446">
        <ele>304.88</ele>
        <time>2020-06-23T12:56:48Z</time>
      </trkpt>
      <trkpt lat="49.6124" lon="4.98457">
        <ele>302.47</ele>
        <time>2020-06-23T12:57:03Z</time>
      </trkpt>
      <trkpt lat="49.61252" lon="4.98476">
        <ele>301.03</ele>
        <time>2020-06-23T12:57:18Z</time>
      </trkpt>
      <trkpt lat="49.6126" lon="4.98487">
        <ele>301.51</ele>
        <time>2020-06-23T12:57:27Z</time>
      </trkpt>
      <trkpt lat="49.61269" lon="4.98498">
        <ele>304.39</ele>
        <time>2020-06-23T12:57:43Z</time>
      </trkpt>
      <trkpt lat="49.61281" lon="4.98517">
        <ele>305.84</ele>
        <time>2020-06-23T12:57:58Z</time>
      </trkpt>
      <trkpt lat="49.61287" lon="4.98524">
        <ele>306.32</ele>
        <time>2020-06-23T12:58:12Z</time>
      </trkpt>
      <trkpt lat="49.61298" lon="4.98539">
        <ele>305.84</ele>
        <time>2020-06-23T12:58:24Z</time>
      </trkpt>
      <trkpt lat="49.61311" lon="4.98554">
        <ele>304.39</ele>
        <time>2020-06-23T12:58:39Z</time>
      </trkpt>
      <trkpt lat="49.61312" lon="4.98555">
        <ele>304.39</ele>
        <time>2020-06-23T12:58:41Z</time>
      </trkpt>
      <trkpt lat="49.61313" lon="4.98559">
        <ele>303.91</ele>
        <time>2020-06-23T12:58:43Z</time>
      </trkpt>
      <trkpt lat="49.6132" lon="4.98576">
        <ele>300.55</ele>
        <time>2020-06-23T12:58:54Z</time>
      </trkpt>
      <trkpt lat="49.61332" lon="4.98595">
        <ele>299.59</ele>
        <time>2020-06-23T12:59:09Z</time>
      </trkpt>
      <trkpt lat="49.6134" lon="4.98612">
        <ele>298.63</ele>
        <time>2020-06-23T12:59:23Z</time>
      </trkpt>
      <trkpt lat="49.61348" lon="4.9863">
        <ele>299.11</ele>
        <time>2020-06-23T12:59:36Z</time>
      </trkpt>
      <trkpt lat="49.61357" lon="4.98643">
        <ele>297.67</ele>
        <time>2020-06-23T12:59:49Z</time>
      </trkpt>
      <trkpt lat="49.61362" lon="4.9866">
        <ele>299.59</ele>
        <time>2020-06-23T13:00:02Z</time>
      </trkpt>
      <trkpt lat="49.61368" lon="4.9867">
        <ele>300.07</ele>
        <time>2020-06-23T13:00:12Z</time>
      </trkpt>
      <trkpt lat="49.61374" lon="4.98682">
        <ele>299.59</ele>
        <time>2020-06-23T13:00:22Z</time>
      </trkpt>
      <trkpt lat="49.6138" lon="4.98697">
        <ele>300.55</ele>
        <time>2020-06-23T13:00:35Z</time>
      </trkpt>
      <trkpt lat="49.61387" lon="4.9871">
        <ele>301.51</ele>
        <time>2020-06-23T13:00:49Z</time>
      </trkpt>
      <trkpt lat="49.61388" lon="4.98713">
        <ele>301.51</ele>
        <time>2020-06-23T13:00:52Z</time>
      </trkpt>
      <trkpt lat="49.61396" lon="4.98731">
        <ele>300.55</ele>
        <time>2020-06-23T13:01:07Z</time>
      </trkpt>
      <trkpt lat="49.61404" lon="4.98745">
        <ele>303.43</ele>
        <time>2020-06-23T13:01:19Z</time>
      </trkpt>
      <trkpt lat="49.61411" lon="4.98761">
        <ele>305.36</ele>
        <time>2020-06-23T13:01:35Z</time>
      </trkpt>
      <trkpt lat="49.61417" lon="4.98769">
        <ele>307.28</ele>
        <time>2020-06-23T13:01:46Z</time>
      </trkpt>
      <trkpt lat="49.61422" lon="4.98777">
        <ele>307.28</ele>
        <time>2020-06-23T13:01:54Z</time>
      </trkpt>
      <trkpt lat="49.61427" lon="4.98784">
        <ele>306.8</ele>
        <time>2020-06-23T13:02:07Z</time>
      </trkpt>
      <trkpt lat="49.61439" lon="4.98794">
        <ele>305.36</ele>
        <time>2020-06-23T13:02:20Z</time>
      </trkpt>
      <trkpt lat="49.6145" lon="4.98803">
        <ele>308.24</ele>
        <time>2020-06-23T13:02:33Z</time>
      </trkpt>
      <trkpt lat="49.61453" lon="4.98807">
        <ele>309.68</ele>
        <time>2020-06-23T13:02:46Z</time>
      </trkpt>
      <trkpt lat="49.61459" lon="4.98809">
        <ele>311.12</ele>
        <time>2020-06-23T13:02:56Z</time>
      </trkpt>
      <trkpt lat="49.61471" lon="4.98807">
        <ele>311.12</ele>
        <time>2020-06-23T13:03:09Z</time>
      </trkpt>
      <trkpt lat="49.61479" lon="4.98805">
        <ele>313.05</ele>
        <time>2020-06-23T13:03:20Z</time>
      </trkpt>
      <trkpt lat="49.61488" lon="4.98807">
        <ele>314.49</ele>
        <time>2020-06-23T13:03:30Z</time>
      </trkpt>
      <trkpt lat="49.61496" lon="4.98805">
        <ele>314.49</ele>
        <time>2020-06-23T13:03:41Z</time>
      </trkpt>
      <trkpt lat="49.61507" lon="4.98806">
        <ele>313.05</ele>
        <time>2020-06-23T13:03:53Z</time>
      </trkpt>
      <trkpt lat="49.61509" lon="4.98807">
        <ele>312.57</ele>
        <time>2020-06-23T13:03:55Z</time>
      </trkpt>
      <trkpt lat="49.61519" lon="4.98808">
        <ele>312.09</ele>
        <time>2020-06-23T13:04:05Z</time>
      </trkpt>
      <trkpt lat="49.61525" lon="4.9881">
        <ele>311.6</ele>
        <time>2020-06-23T13:04:10Z</time>
      </trkpt>
      <trkpt lat="49.61539" lon="4.98823">
        <ele>310.16</ele>
        <time>2020-06-23T13:04:25Z</time>
      </trkpt>
      <trkpt lat="49.61546" lon="4.98829">
        <ele>311.6</ele>
        <time>2020-06-23T13:04:38Z</time>
      </trkpt>
      <trkpt lat="49.61551" lon="4.98834">
        <ele>311.6</ele>
        <time>2020-06-23T13:04:49Z</time>
      </trkpt>
      <trkpt lat="49.61562" lon="4.9884">
        <ele>312.09</ele>
        <time>2020-06-23T13:05:01Z</time>
      </trkpt>
      <trkpt lat="49.61571" lon="4.98844">
        <ele>312.09</ele>
        <time>2020-06-23T13:05:13Z</time>
      </trkpt>
      <trkpt lat="49.61575" lon="4.98845">
        <ele>312.09</ele>
        <time>2020-06-23T13:05:18Z</time>
      </trkpt>
      <trkpt lat="49.61585" lon="4.9885">
        <ele>312.57</ele>
        <time>2020-06-23T13:05:33Z</time>
      </trkpt>
      <trkpt lat="49.61591" lon="4.98856">
        <ele>314.49</ele>
        <time>2020-06-23T13:05:47Z</time>
      </trkpt>
      <trkpt lat="49.61595" lon="4.98859">
        <ele>314.01</ele>
        <time>2020-06-23T13:05:56Z</time>
      </trkpt>
      <trkpt lat="49.61607" lon="4.9887">
        <ele>313.53</ele>
        <time>2020-06-23T13:06:11Z</time>
      </trkpt>
      <trkpt lat="49.61616" lon="4.98871">
        <ele>313.53</ele>
        <time>2020-06-23T13:06:23Z</time>
      </trkpt>
      <trkpt lat="49.61626" lon="4.98868">
        <ele>314.01</ele>
        <time>2020-06-23T13:06:37Z</time>
      </trkpt>
      <trkpt lat="49.6163" lon="4.98867">
        <ele>314.97</ele>
        <time>2020-06-23T13:06:55Z</time>
      </trkpt>
      <trkpt lat="49.61634" lon="4.98862">
        <ele>314.49</ele>
        <time>2020-06-23T13:07:24Z</time>
      </trkpt>
      <trkpt lat="49.61637" lon="4.9886">
        <ele>313.53</ele>
        <time>2020-06-23T13:07:47Z</time>
      </trkpt>
      <trkpt lat="49.61637" lon="4.98859">
        <ele>314.01</ele>
        <time>2020-06-23T13:08:07Z</time>
      </trkpt>
      <trkpt lat="49.61639" lon="4.98858">
        <ele>313.53</ele>
        <time>2020-06-23T13:08:34Z</time>
      </trkpt>
      <trkpt lat="49.6164" lon="4.98856">
        <ele>314.01</ele>
        <time>2020-06-23T13:08:59Z</time>
      </trkpt>
      <trkpt lat="49.6164" lon="4.98855">
        <ele>313.53</ele>
        <time>2020-06-23T13:09:26Z</time>
      </trkpt>
      <trkpt lat="49.61641" lon="4.98854">
        <ele>313.05</ele>
        <time>2020-06-23T13:09:50Z</time>
      </trkpt>
      <trkpt lat="49.61641" lon="4.98854">
        <ele>313.05</ele>
        <time>2020-06-23T13:10:21Z</time>
      </trkpt>
      <trkpt lat="49.61641" lon="4.98852">
        <ele>312.57</ele>
        <time>2020-06-23T13:10:51Z</time>
      </trkpt>
      <trkpt lat="49.61641" lon="4.98851">
        <ele>313.05</ele>
        <time>2020-06-23T13:11:16Z</time>
      </trkpt>
      <trkpt lat="49.6164" lon="4.98851">
        <ele>313.53</ele>
        <time>2020-06-23T13:11:46Z</time>
      </trkpt>
      <trkpt lat="49.61641" lon="4.98852">
        <ele>313.53</ele>
        <time>2020-06-23T13:11:55Z</time>
      </trkpt>
      <trkpt lat="49.61643" lon="4.98849">
        <ele>313.53</ele>
        <time>2020-06-23T13:12:09Z</time>
      </trkpt>
      <trkpt lat="49.61641" lon="4.98852">
        <ele>312.09</ele>
        <time>2020-06-23T13:12:24Z</time>
      </trkpt>
      <trkpt lat="49.61641" lon="4.98853">
        <ele>312.09</ele>
        <time>2020-06-23T13:12:45Z</time>
      </trkpt>
      <trkpt lat="49.61648" lon="4.98842">
        <ele>310.64</ele>
        <time>2020-06-23T13:13:01Z</time>
      </trkpt>
      <trkpt lat="49.61654" lon="4.98826">
        <ele>309.68</ele>
        <time>2020-06-23T13:13:12Z</time>
      </trkpt>
      <trkpt lat="49.61661" lon="4.98813">
        <ele>307.28</ele>
        <time>2020-06-23T13:13:27Z</time>
      </trkpt>
      <trkpt lat="49.61668" lon="4.98799">
        <ele>305.36</ele>
        <time>2020-06-23T13:13:41Z</time>
      </trkpt>
      <trkpt lat="49.61678" lon="4.98782">
        <ele>304.88</ele>
        <time>2020-06-23T13:13:57Z</time>
      </trkpt>
      <trkpt lat="49.61691" lon="4.98763">
        <ele>306.32</ele>
        <time>2020-06-23T13:14:14Z</time>
      </trkpt>
      <trkpt lat="49.61701" lon="4.98744">
        <ele>308.24</ele>
        <time>2020-06-23T13:14:29Z</time>
      </trkpt>
      <trkpt lat="49.61708" lon="4.98729">
        <ele>312.57</ele>
        <time>2020-06-23T13:14:44Z</time>
      </trkpt>
      <trkpt lat="49.61714" lon="4.98712">
        <ele>316.41</ele>
        <time>2020-06-23T13:14:59Z</time>
      </trkpt>
      <trkpt lat="49.6172" lon="4.98688">
        <ele>316.89</ele>
        <time>2020-06-23T13:15:13Z</time>
      </trkpt>
      <trkpt lat="49.61729" lon="4.98665">
        <ele>315.93</ele>
        <time>2020-06-23T13:15:30Z</time>
      </trkpt>
      <trkpt lat="49.61737" lon="4.98632">
        <ele>314.97</ele>
        <time>2020-06-23T13:15:50Z</time>
      </trkpt>
      <trkpt lat="49.61742" lon="4.98605">
        <ele>317.85</ele>
        <time>2020-06-23T13:16:06Z</time>
      </trkpt>
      <trkpt lat="49.61746" lon="4.98574">
        <ele>323.14</ele>
        <time>2020-06-23T13:16:25Z</time>
      </trkpt>
      <trkpt lat="49.61749" lon="4.98549">
        <ele>328.43</ele>
        <time>2020-06-23T13:16:42Z</time>
      </trkpt>
      <trkpt lat="49.61752" lon="4.98524">
        <ele>331.79</ele>
        <time>2020-06-23T13:16:58Z</time>
      </trkpt>
      <trkpt lat="49.61758" lon="4.98504">
        <ele>335.16</ele>
        <time>2020-06-23T13:17:12Z</time>
      </trkpt>
      <trkpt lat="49.61764" lon="4.98479">
        <ele>339.96</ele>
        <time>2020-06-23T13:17:28Z</time>
      </trkpt>
      <trkpt lat="49.61768" lon="4.98456">
        <ele>341.41</ele>
        <time>2020-06-23T13:17:44Z</time>
      </trkpt>
      <trkpt lat="49.61772" lon="4.98432">
        <ele>342.37</ele>
        <time>2020-06-23T13:18:01Z</time>
      </trkpt>
      <trkpt lat="49.61778" lon="4.98409">
        <ele>336.12</ele>
        <time>2020-06-23T13:18:17Z</time>
      </trkpt>
      <trkpt lat="49.61782" lon="4.98389">
        <ele>330.83</ele>
        <time>2020-06-23T13:18:32Z</time>
      </trkpt>
      <trkpt lat="49.61787" lon="4.98372">
        <ele>326.99</ele>
        <time>2020-06-23T13:18:46Z</time>
      </trkpt>
      <trkpt lat="49.61795" lon="4.98346">
        <ele>326.5</ele>
        <time>2020-06-23T13:19:01Z</time>
      </trkpt>
      <trkpt lat="49.61798" lon="4.98325">
        <ele>326.02</ele>
        <time>2020-06-23T13:19:15Z</time>
      </trkpt>
      <trkpt lat="49.618" lon="4.98302">
        <ele>325.54</ele>
        <time>2020-06-23T13:19:29Z</time>
      </trkpt>
      <trkpt lat="49.61803" lon="4.98281">
        <ele>323.62</ele>
        <time>2020-06-23T13:19:43Z</time>
      </trkpt>
      <trkpt lat="49.61805" lon="4.9827">
        <ele>322.66</ele>
        <time>2020-06-23T13:19:51Z</time>
      </trkpt>
      <trkpt lat="49.61809" lon="4.9824">
        <ele>323.14</ele>
        <time>2020-06-23T13:20:08Z</time>
      </trkpt>
      <trkpt lat="49.61814" lon="4.9822">
        <ele>322.66</ele>
        <time>2020-06-23T13:20:22Z</time>
      </trkpt>
      <trkpt lat="49.61818" lon="4.98199">
        <ele>319.78</ele>
        <time>2020-06-23T13:20:36Z</time>
      </trkpt>
      <trkpt lat="49.61821" lon="4.98186">
        <ele>313.53</ele>
        <time>2020-06-23T13:20:51Z</time>
      </trkpt>
      <trkpt lat="49.61824" lon="4.98182">
        <ele>309.68</ele>
        <time>2020-06-23T13:21:06Z</time>
      </trkpt>
      <trkpt lat="49.61825" lon="4.98182">
        <ele>309.2</ele>
        <time>2020-06-23T13:21:07Z</time>
      </trkpt>
      <trkpt lat="49.61838" lon="4.98177">
        <ele>304.88</ele>
        <time>2020-06-23T13:21:23Z</time>
      </trkpt>
      <trkpt lat="49.61852" lon="4.98172">
        <ele>303.91</ele>
        <time>2020-06-23T13:21:39Z</time>
      </trkpt>
      <trkpt lat="49.61866" lon="4.98169">
        <ele>300.55</ele>
        <time>2020-06-23T13:21:58Z</time>
      </trkpt>
      <trkpt lat="49.61886" lon="4.98165">
        <ele>296.22</ele>
        <time>2020-06-23T13:22:17Z</time>
      </trkpt>
      <trkpt lat="49.61892" lon="4.98165">
        <ele>294.78</ele>
        <time>2020-06-23T13:22:24Z</time>
      </trkpt>
      <trkpt lat="49.6191" lon="4.98168">
        <ele>289.49</ele>
        <time>2020-06-23T13:22:43Z</time>
      </trkpt>
      <trkpt lat="49.61922" lon="4.98173">
        <ele>286.13</ele>
        <time>2020-06-23T13:22:56Z</time>
      </trkpt>
      <trkpt lat="49.61928" lon="4.98175">
        <ele>286.61</ele>
        <time>2020-06-23T13:23:11Z</time>
      </trkpt>
      <trkpt lat="49.61941" lon="4.98178">
        <ele>287.09</ele>
        <time>2020-06-23T13:23:28Z</time>
      </trkpt>
      <trkpt lat="49.61961" lon="4.98181">
        <ele>286.13</ele>
        <time>2020-06-23T13:23:45Z</time>
      </trkpt>
      <trkpt lat="49.61978" lon="4.98186">
        <ele>284.21</ele>
        <time>2020-06-23T13:24:02Z</time>
      </trkpt>
      <trkpt lat="49.61996" lon="4.98194">
        <ele>283.73</ele>
        <time>2020-06-23T13:24:19Z</time>
      </trkpt>
      <trkpt lat="49.62012" lon="4.98203">
        <ele>284.69</ele>
        <time>2020-06-23T13:24:34Z</time>
      </trkpt>
      <trkpt lat="49.62024" lon="4.98208">
        <ele>284.69</ele>
        <time>2020-06-23T13:24:47Z</time>
      </trkpt>
      <trkpt lat="49.62038" lon="4.98215">
        <ele>282.77</ele>
        <time>2020-06-23T13:25:01Z</time>
      </trkpt>
      <trkpt lat="49.62041" lon="4.98217">
        <ele>282.77</ele>
        <time>2020-06-23T13:25:04Z</time>
      </trkpt>
      <trkpt lat="49.62054" lon="4.98221">
        <ele>281.8</ele>
        <time>2020-06-23T13:25:21Z</time>
      </trkpt>
      <trkpt lat="49.62064" lon="4.98226">
        <ele>282.28</ele>
        <time>2020-06-23T13:25:35Z</time>
      </trkpt>
      <trkpt lat="49.62065" lon="4.98226">
        <ele>282.28</ele>
        <time>2020-06-23T13:25:36Z</time>
      </trkpt>
      <trkpt lat="49.62074" lon="4.98229">
        <ele>281.8</ele>
        <time>2020-06-23T13:25:46Z</time>
      </trkpt>
      <trkpt lat="49.62091" lon="4.98241">
        <ele>278.44</ele>
        <time>2020-06-23T13:26:04Z</time>
      </trkpt>
      <trkpt lat="49.62094" lon="4.98244">
        <ele>278.44</ele>
        <time>2020-06-23T13:26:07Z</time>
      </trkpt>
      <trkpt lat="49.62105" lon="4.98255">
        <ele>278.44</ele>
        <time>2020-06-23T13:26:21Z</time>
      </trkpt>
      <trkpt lat="49.62113" lon="4.9826">
        <ele>280.36</ele>
        <time>2020-06-23T13:26:29Z</time>
      </trkpt>
      <trkpt lat="49.62125" lon="4.9827">
        <ele>278.44</ele>
        <time>2020-06-23T13:26:43Z</time>
      </trkpt>
      <trkpt lat="49.62132" lon="4.98276">
        <ele>277</ele>
        <time>2020-06-23T13:26:52Z</time>
      </trkpt>
      <trkpt lat="49.62147" lon="4.98283">
        <ele>274.11</ele>
        <time>2020-06-23T13:27:06Z</time>
      </trkpt>
      <trkpt lat="49.6216" lon="4.98288">
        <ele>275.07</ele>
        <time>2020-06-23T13:27:20Z</time>
      </trkpt>
      <trkpt lat="49.62173" lon="4.98292">
        <ele>275.56</ele>
        <time>2020-06-23T13:27:37Z</time>
      </trkpt>
      <trkpt lat="49.62186" lon="4.98301">
        <ele>277</ele>
        <time>2020-06-23T13:27:52Z</time>
      </trkpt>
      <trkpt lat="49.62198" lon="4.98305">
        <ele>279.4</ele>
        <time>2020-06-23T13:28:07Z</time>
      </trkpt>
      <trkpt lat="49.62208" lon="4.9831">
        <ele>279.88</ele>
        <time>2020-06-23T13:28:17Z</time>
      </trkpt>
      <trkpt lat="49.62223" lon="4.98315">
        <ele>279.88</ele>
        <time>2020-06-23T13:28:33Z</time>
      </trkpt>
      <trkpt lat="49.62232" lon="4.98319">
        <ele>277.96</ele>
        <time>2020-06-23T13:28:43Z</time>
      </trkpt>
      <trkpt lat="49.6224" lon="4.98323">
        <ele>273.63</ele>
        <time>2020-06-23T13:28:56Z</time>
      </trkpt>
      <trkpt lat="49.62258" lon="4.98342">
        <ele>270.27</ele>
        <time>2020-06-23T13:29:13Z</time>
      </trkpt>
      <trkpt lat="49.62263" lon="4.98348">
        <ele>269.31</ele>
        <time>2020-06-23T13:29:20Z</time>
      </trkpt>
      <trkpt lat="49.62275" lon="4.98365">
        <ele>267.86</ele>
        <time>2020-06-23T13:29:35Z</time>
      </trkpt>
      <trkpt lat="49.62282" lon="4.98376">
        <ele>268.83</ele>
        <time>2020-06-23T13:29:44Z</time>
      </trkpt>
      <trkpt lat="49.6229" lon="4.98392">
        <ele>266.42</ele>
        <time>2020-06-23T13:29:58Z</time>
      </trkpt>
      <trkpt lat="49.62293" lon="4.98396">
        <ele>266.9</ele>
        <time>2020-06-23T13:30:02Z</time>
      </trkpt>
      <trkpt lat="49.623" lon="4.9841">
        <ele>266.9</ele>
        <time>2020-06-23T13:30:12Z</time>
      </trkpt>
      <trkpt lat="49.62309" lon="4.98423">
        <ele>267.86</ele>
        <time>2020-06-23T13:30:26Z</time>
      </trkpt>
      <trkpt lat="49.62318" lon="4.98434">
        <ele>267.86</ele>
        <time>2020-06-23T13:30:38Z</time>
      </trkpt>
      <trkpt lat="49.62334" lon="4.98441">
        <ele>267.86</ele>
        <time>2020-06-23T13:30:53Z</time>
      </trkpt>
      <trkpt lat="49.6235" lon="4.98451">
        <ele>267.38</ele>
        <time>2020-06-23T13:31:08Z</time>
      </trkpt>
      <trkpt lat="49.62354" lon="4.98454">
        <ele>266.9</ele>
        <time>2020-06-23T13:31:12Z</time>
      </trkpt>
      <trkpt lat="49.62367" lon="4.98461">
        <ele>265.46</ele>
        <time>2020-06-23T13:31:27Z</time>
      </trkpt>
      <trkpt lat="49.62381" lon="4.98469">
        <ele>266.42</ele>
        <time>2020-06-23T13:31:41Z</time>
      </trkpt>
      <trkpt lat="49.62393" lon="4.98477">
        <ele>267.38</ele>
        <time>2020-06-23T13:31:56Z</time>
      </trkpt>
      <trkpt lat="49.62398" lon="4.98482">
        <ele>268.35</ele>
        <time>2020-06-23T13:32:01Z</time>
      </trkpt>
      <trkpt lat="49.62409" lon="4.98487">
        <ele>268.35</ele>
        <time>2020-06-23T13:32:15Z</time>
      </trkpt>
      <trkpt lat="49.6242" lon="4.98497">
        <ele>266.9</ele>
        <time>2020-06-23T13:32:29Z</time>
      </trkpt>
      <trkpt lat="49.62433" lon="4.98509">
        <ele>261.62</ele>
        <time>2020-06-23T13:32:45Z</time>
      </trkpt>
      <trkpt lat="49.62445" lon="4.98519">
        <ele>259.69</ele>
        <time>2020-06-23T13:32:59Z</time>
      </trkpt>
      <trkpt lat="49.62448" lon="4.98521">
        <ele>259.69</ele>
        <time>2020-06-23T13:33:02Z</time>
      </trkpt>
      <trkpt lat="49.6245" lon="4.98523">
        <ele>259.69</ele>
        <time>2020-06-23T13:33:04Z</time>
      </trkpt>
      <trkpt lat="49.62464" lon="4.98533">
        <ele>259.21</ele>
        <time>2020-06-23T13:33:18Z</time>
      </trkpt>
      <trkpt lat="49.62472" lon="4.98538">
        <ele>258.73</ele>
        <time>2020-06-23T13:33:31Z</time>
      </trkpt>
      <trkpt lat="49.62473" lon="4.98539">
        <ele>258.73</ele>
        <time>2020-06-23T13:33:32Z</time>
      </trkpt>
      <trkpt lat="49.62482" lon="4.98547">
        <ele>258.25</ele>
        <time>2020-06-23T13:33:45Z</time>
      </trkpt>
      <trkpt lat="49.625" lon="4.98556">
        <ele>258.73</ele>
        <time>2020-06-23T13:34:02Z</time>
      </trkpt>
      <trkpt lat="49.62518" lon="4.98564">
        <ele>257.29</ele>
        <time>2020-06-23T13:34:19Z</time>
      </trkpt>
      <trkpt lat="49.62533" lon="4.98562">
        <ele>256.33</ele>
        <time>2020-06-23T13:34:34Z</time>
      </trkpt>
      <trkpt lat="49.62548" lon="4.98556">
        <ele>255.37</ele>
        <time>2020-06-23T13:34:50Z</time>
      </trkpt>
      <trkpt lat="49.6255" lon="4.98551">
        <ele>255.85</ele>
        <time>2020-06-23T13:35:03Z</time>
      </trkpt>
      <trkpt lat="49.62552" lon="4.98547">
        <ele>256.81</ele>
        <time>2020-06-23T13:35:23Z</time>
      </trkpt>
      <trkpt lat="49.62555" lon="4.98542">
        <ele>256.81</ele>
        <time>2020-06-23T13:35:27Z</time>
      </trkpt>
      <trkpt lat="49.62558" lon="4.98536">
        <ele>257.29</ele>
        <time>2020-06-23T13:35:33Z</time>
      </trkpt>
      <trkpt lat="49.62561" lon="4.9853">
        <ele>257.77</ele>
        <time>2020-06-23T13:35:38Z</time>
      </trkpt>
      <trkpt lat="49.62569" lon="4.98514">
        <ele>258.25</ele>
        <time>2020-06-23T13:35:52Z</time>
      </trkpt>
      <trkpt lat="49.6257" lon="4.98512">
        <ele>258.73</ele>
        <time>2020-06-23T13:35:54Z</time>
      </trkpt>
      <trkpt lat="49.62579" lon="4.98492">
        <ele>259.69</ele>
        <time>2020-06-23T13:36:08Z</time>
      </trkpt>
      <trkpt lat="49.62584" lon="4.98476">
        <ele>257.77</ele>
        <time>2020-06-23T13:36:21Z</time>
      </trkpt>
      <trkpt lat="49.62588" lon="4.98469">
        <ele>256.81</ele>
        <time>2020-06-23T13:36:30Z</time>
      </trkpt>
      <trkpt lat="49.62595" lon="4.98452">
        <ele>254.89</ele>
        <time>2020-06-23T13:36:44Z</time>
      </trkpt>
      <trkpt lat="49.62596" lon="4.98451">
        <ele>254.41</ele>
        <time>2020-06-23T13:36:45Z</time>
      </trkpt>
      <trkpt lat="49.62603" lon="4.98432">
        <ele>252.96</ele>
        <time>2020-06-23T13:37:01Z</time>
      </trkpt>
      <trkpt lat="49.62611" lon="4.98414">
        <ele>249.6</ele>
        <time>2020-06-23T13:37:17Z</time>
      </trkpt>
      <trkpt lat="49.62613" lon="4.98411">
        <ele>248.64</ele>
        <time>2020-06-23T13:37:20Z</time>
      </trkpt>
      <trkpt lat="49.62616" lon="4.98395">
        <ele>245.75</ele>
        <time>2020-06-23T13:37:33Z</time>
      </trkpt>
      <trkpt lat="49.62624" lon="4.98381">
        <ele>242.39</ele>
        <time>2020-06-23T13:37:48Z</time>
      </trkpt>
      <trkpt lat="49.62633" lon="4.98372">
        <ele>239.02</ele>
        <time>2020-06-23T13:38:03Z</time>
      </trkpt>
      <trkpt lat="49.62642" lon="4.98362">
        <ele>237.1</ele>
        <time>2020-06-23T13:38:18Z</time>
      </trkpt>
      <trkpt lat="49.62651" lon="4.9835">
        <ele>236.14</ele>
        <time>2020-06-23T13:38:30Z</time>
      </trkpt>
      <trkpt lat="49.6266" lon="4.98337">
        <ele>233.26</ele>
        <time>2020-06-23T13:38:44Z</time>
      </trkpt>
      <trkpt lat="49.62667" lon="4.98328">
        <ele>231.81</ele>
        <time>2020-06-23T13:38:54Z</time>
      </trkpt>
      <trkpt lat="49.62669" lon="4.98327">
        <ele>231.33</ele>
        <time>2020-06-23T13:38:56Z</time>
      </trkpt>
      <trkpt lat="49.62678" lon="4.98315">
        <ele>230.85</ele>
        <time>2020-06-23T13:39:10Z</time>
      </trkpt>
      <trkpt lat="49.62681" lon="4.98313">
        <ele>230.85</ele>
        <time>2020-06-23T13:39:13Z</time>
      </trkpt>
      <trkpt lat="49.62689" lon="4.98307">
        <ele>232.3</ele>
        <time>2020-06-23T13:39:25Z</time>
      </trkpt>
      <trkpt lat="49.62699" lon="4.98299">
        <ele>235.18</ele>
        <time>2020-06-23T13:39:38Z</time>
      </trkpt>
      <trkpt lat="49.62704" lon="4.98295">
        <ele>234.7</ele>
        <time>2020-06-23T13:39:52Z</time>
      </trkpt>
      <trkpt lat="49.62704" lon="4.98294">
        <ele>235.18</ele>
        <time>2020-06-23T13:40:14Z</time>
      </trkpt>
      <trkpt lat="49.62705" lon="4.98293">
        <ele>236.14</ele>
        <time>2020-06-23T13:40:40Z</time>
      </trkpt>
      <trkpt lat="49.62706" lon="4.98292">
        <ele>237.58</ele>
        <time>2020-06-23T13:41:00Z</time>
      </trkpt>
      <trkpt lat="49.62715" lon="4.98281">
        <ele>237.1</ele>
        <time>2020-06-23T13:41:13Z</time>
      </trkpt>
      <trkpt lat="49.62726" lon="4.98276">
        <ele>238.06</ele>
        <time>2020-06-23T13:41:25Z</time>
      </trkpt>
      <trkpt lat="49.6273" lon="4.98273">
        <ele>238.54</ele>
        <time>2020-06-23T13:41:39Z</time>
      </trkpt>
      <trkpt lat="49.62741" lon="4.98264">
        <ele>241.91</ele>
        <time>2020-06-23T13:41:56Z</time>
      </trkpt>
      <trkpt lat="49.62752" lon="4.98263">
        <ele>243.83</ele>
        <time>2020-06-23T13:42:13Z</time>
      </trkpt>
      <trkpt lat="49.62766" lon="4.98256">
        <ele>243.83</ele>
        <time>2020-06-23T13:42:34Z</time>
      </trkpt>
      <trkpt lat="49.62771" lon="4.98255">
        <ele>242.87</ele>
        <time>2020-06-23T13:42:50Z</time>
      </trkpt>
      <trkpt lat="49.62786" lon="4.98251">
        <ele>239.51</ele>
        <time>2020-06-23T13:43:07Z</time>
      </trkpt>
      <trkpt lat="49.62788" lon="4.98246">
        <ele>239.51</ele>
        <time>2020-06-23T13:43:29Z</time>
      </trkpt>
      <trkpt lat="49.62795" lon="4.98246">
        <ele>238.06</ele>
        <time>2020-06-23T13:43:47Z</time>
      </trkpt>
      <trkpt lat="49.62798" lon="4.98248">
        <ele>235.18</ele>
        <time>2020-06-23T13:44:01Z</time>
      </trkpt>
      <trkpt lat="49.62802" lon="4.98248">
        <ele>233.26</ele>
        <time>2020-06-23T13:44:15Z</time>
      </trkpt>
      <trkpt lat="49.62814" lon="4.98245">
        <ele>231.33</ele>
        <time>2020-06-23T13:44:29Z</time>
      </trkpt>
      <trkpt lat="49.62832" lon="4.98241">
        <ele>226.53</ele>
        <time>2020-06-23T13:44:46Z</time>
      </trkpt>
      <trkpt lat="49.62849" lon="4.98238">
        <ele>224.12</ele>
        <time>2020-06-23T13:45:03Z</time>
      </trkpt>
      <trkpt lat="49.62863" lon="4.98234">
        <ele>219.8</ele>
        <time>2020-06-23T13:45:19Z</time>
      </trkpt>
      <trkpt lat="49.62879" lon="4.98224">
        <ele>216.91</ele>
        <time>2020-06-23T13:45:40Z</time>
      </trkpt>
      <trkpt lat="49.62892" lon="4.98219">
        <ele>217.4</ele>
        <time>2020-06-23T13:45:56Z</time>
      </trkpt>
      <trkpt lat="49.62894" lon="4.98218">
        <ele>216.91</ele>
        <time>2020-06-23T13:45:58Z</time>
      </trkpt>
      <trkpt lat="49.62899" lon="4.98215">
        <ele>218.36</ele>
        <time>2020-06-23T13:46:17Z</time>
      </trkpt>
      <trkpt lat="49.62909" lon="4.98209">
        <ele>217.88</ele>
        <time>2020-06-23T13:46:34Z</time>
      </trkpt>
      <trkpt lat="49.62925" lon="4.98202">
        <ele>217.88</ele>
        <time>2020-06-23T13:46:50Z</time>
      </trkpt>
      <trkpt lat="49.62937" lon="4.98198">
        <ele>217.4</ele>
        <time>2020-06-23T13:47:06Z</time>
      </trkpt>
      <trkpt lat="49.62956" lon="4.98194">
        <ele>214.51</ele>
        <time>2020-06-23T13:47:27Z</time>
      </trkpt>
      <trkpt lat="49.62966" lon="4.98191">
        <ele>214.03</ele>
        <time>2020-06-23T13:47:43Z</time>
      </trkpt>
      <trkpt lat="49.62976" lon="4.98187">
        <ele>209.7</ele>
        <time>2020-06-23T13:47:57Z</time>
      </trkpt>
      <trkpt lat="49.62984" lon="4.98181">
        <ele>207.3</ele>
        <time>2020-06-23T13:48:07Z</time>
      </trkpt>
      <trkpt lat="49.62994" lon="4.98175">
        <ele>204.42</ele>
        <time>2020-06-23T13:48:21Z</time>
      </trkpt>
      <trkpt lat="49.63006" lon="4.98164">
        <ele>202.49</ele>
        <time>2020-06-23T13:48:36Z</time>
      </trkpt>
      <trkpt lat="49.6301" lon="4.9816">
        <ele>202.98</ele>
        <time>2020-06-23T13:48:41Z</time>
      </trkpt>
      <trkpt lat="49.63023" lon="4.98153">
        <ele>202.01</ele>
        <time>2020-06-23T13:48:55Z</time>
      </trkpt>
      <trkpt lat="49.63029" lon="4.98149">
        <ele>202.01</ele>
        <time>2020-06-23T13:49:02Z</time>
      </trkpt>
      <trkpt lat="49.63043" lon="4.98138">
        <ele>200.09</ele>
        <time>2020-06-23T13:49:16Z</time>
      </trkpt>
      <trkpt lat="49.63057" lon="4.98131">
        <ele>198.17</ele>
        <time>2020-06-23T13:49:30Z</time>
      </trkpt>
      <trkpt lat="49.63069" lon="4.98121">
        <ele>197.21</ele>
        <time>2020-06-23T13:49:43Z</time>
      </trkpt>
      <trkpt lat="49.63074" lon="4.98116">
        <ele>197.21</ele>
        <time>2020-06-23T13:49:50Z</time>
      </trkpt>
      <trkpt lat="49.63088" lon="4.98105">
        <ele>195.28</ele>
        <time>2020-06-23T13:50:05Z</time>
      </trkpt>
      <trkpt lat="49.63101" lon="4.98093">
        <ele>195.77</ele>
        <time>2020-06-23T13:50:21Z</time>
      </trkpt>
      <trkpt lat="49.63109" lon="4.98089">
        <ele>195.28</ele>
        <time>2020-06-23T13:50:29Z</time>
      </trkpt>
      <trkpt lat="49.63111" lon="4.98087">
        <ele>194.8</ele>
        <time>2020-06-23T13:50:31Z</time>
      </trkpt>
      <trkpt lat="49.63118" lon="4.9808">
        <ele>194.32</ele>
        <time>2020-06-23T13:50:39Z</time>
      </trkpt>
      <trkpt lat="49.63121" lon="4.98078">
        <ele>195.28</ele>
        <time>2020-06-23T13:50:42Z</time>
      </trkpt>
      <trkpt lat="49.6313" lon="4.9807">
        <ele>199.13</ele>
        <time>2020-06-23T13:50:53Z</time>
      </trkpt>
      <trkpt lat="49.63138" lon="4.98065">
        <ele>201.05</ele>
        <time>2020-06-23T13:51:01Z</time>
      </trkpt>
      <trkpt lat="49.63144" lon="4.98062">
        <ele>202.01</ele>
        <time>2020-06-23T13:51:08Z</time>
      </trkpt>
      <trkpt lat="49.63161" lon="4.98052">
        <ele>202.98</ele>
        <time>2020-06-23T13:51:24Z</time>
      </trkpt>
      <trkpt lat="49.63175" lon="4.98042">
        <ele>202.49</ele>
        <time>2020-06-23T13:51:41Z</time>
      </trkpt>
      <trkpt lat="49.63183" lon="4.98038">
        <ele>202.98</ele>
        <time>2020-06-23T13:51:49Z</time>
      </trkpt>
      <trkpt lat="49.63187" lon="4.98033">
        <ele>202.49</ele>
        <time>2020-06-23T13:51:53Z</time>
      </trkpt>
      <trkpt lat="49.63199" lon="4.98027">
        <ele>203.94</ele>
        <time>2020-06-23T13:52:06Z</time>
      </trkpt>
      <trkpt lat="49.63214" lon="4.98012">
        <ele>199.61</ele>
        <time>2020-06-23T13:52:23Z</time>
      </trkpt>
      <trkpt lat="49.63218" lon="4.98009">
        <ele>199.13</ele>
        <time>2020-06-23T13:52:27Z</time>
      </trkpt>
      <trkpt lat="49.63233" lon="4.98">
        <ele>201.53</ele>
        <time>2020-06-23T13:52:43Z</time>
      </trkpt>
      <trkpt lat="49.63248" lon="4.9799">
        <ele>202.49</ele>
        <time>2020-06-23T13:52:57Z</time>
      </trkpt>
      <trkpt lat="49.63264" lon="4.97983">
        <ele>202.01</ele>
        <time>2020-06-23T13:53:12Z</time>
      </trkpt>
      <trkpt lat="49.63276" lon="4.97982">
        <ele>202.49</ele>
        <time>2020-06-23T13:53:25Z</time>
      </trkpt>
      <trkpt lat="49.63282" lon="4.97978">
        <ele>200.57</ele>
        <time>2020-06-23T13:53:34Z</time>
      </trkpt>
      <trkpt lat="49.63287" lon="4.97977">
        <ele>200.09</ele>
        <time>2020-06-23T13:53:39Z</time>
      </trkpt>
      <trkpt lat="49.6329" lon="4.97978">
        <ele>200.09</ele>
        <time>2020-06-23T13:53:42Z</time>
      </trkpt>
      <trkpt lat="49.63303" lon="4.97974">
        <ele>197.69</ele>
        <time>2020-06-23T13:53:58Z</time>
      </trkpt>
      <trkpt lat="49.63317" lon="4.97965">
        <ele>198.65</ele>
        <time>2020-06-23T13:54:13Z</time>
      </trkpt>
      <trkpt lat="49.63323" lon="4.97959">
        <ele>198.65</ele>
        <time>2020-06-23T13:54:19Z</time>
      </trkpt>
      <trkpt lat="49.63331" lon="4.97955">
        <ele>199.61</ele>
        <time>2020-06-23T13:54:27Z</time>
      </trkpt>
      <trkpt lat="49.63339" lon="4.97949">
        <ele>201.53</ele>
        <time>2020-06-23T13:54:35Z</time>
      </trkpt>
      <trkpt lat="49.63342" lon="4.97948">
        <ele>201.53</ele>
        <time>2020-06-23T13:54:38Z</time>
      </trkpt>
      <trkpt lat="49.63357" lon="4.97936">
        <ele>201.53</ele>
        <time>2020-06-23T13:54:53Z</time>
      </trkpt>
      <trkpt lat="49.63364" lon="4.97922">
        <ele>205.38</ele>
        <time>2020-06-23T13:55:08Z</time>
      </trkpt>
      <trkpt lat="49.63367" lon="4.97927">
        <ele>211.15</ele>
        <time>2020-06-23T13:55:18Z</time>
      </trkpt>
      <trkpt lat="49.63378" lon="4.97942">
        <ele>213.55</ele>
        <time>2020-06-23T13:55:33Z</time>
      </trkpt>
      <trkpt lat="49.63394" lon="4.97963">
        <ele>209.22</ele>
        <time>2020-06-23T13:55:49Z</time>
      </trkpt>
      <trkpt lat="49.63404" lon="4.9798">
        <ele>206.82</ele>
        <time>2020-06-23T13:56:01Z</time>
      </trkpt>
      <trkpt lat="49.63413" lon="4.97997">
        <ele>205.86</ele>
        <time>2020-06-23T13:56:15Z</time>
      </trkpt>
      <trkpt lat="49.63418" lon="4.98015">
        <ele>203.94</ele>
        <time>2020-06-23T13:56:30Z</time>
      </trkpt>
      <trkpt lat="49.63419" lon="4.98018">
        <ele>202.98</ele>
        <time>2020-06-23T13:56:36Z</time>
      </trkpt>
      <trkpt lat="49.63425" lon="4.98031">
        <ele>199.61</ele>
        <time>2020-06-23T13:56:50Z</time>
      </trkpt>
      <trkpt lat="49.63432" lon="4.98039">
        <ele>196.25</ele>
        <time>2020-06-23T13:57:02Z</time>
      </trkpt>
      <trkpt lat="49.63445" lon="4.9805">
        <ele>193.84</ele>
        <time>2020-06-23T13:57:16Z</time>
      </trkpt>
      <trkpt lat="49.63447" lon="4.98053">
        <ele>193.36</ele>
        <time>2020-06-23T13:57:29Z</time>
      </trkpt>
      <trkpt lat="49.63448" lon="4.98051">
        <ele>191.92</ele>
        <time>2020-06-23T13:57:42Z</time>
      </trkpt>
      <trkpt lat="49.63448" lon="4.98051">
        <ele>191.92</ele>
        <time>2020-06-23T13:57:45Z</time>
      </trkpt>
    </trkseg>
  </trk>
</gpx>